<?xml version="1.0" encoding="UTF-8" standalone="no" ?>
<gpx xmlns="http://www.topografix.com/GPX/1/1" xmlns:xsi="http://www.w3.org/2001/XMLSchema-instance" xsi:schemaLocation="http://www.topografix.com/GPX/1/1 http://www.topografix.com/GPX/1/1/gpx.xsd" version="1.1" creator="VisuGPX - https://www.visugpx.com">
  <metadata>
    <name>Jura_Morbier</name>
  </metadata>
  <trk>
    <name><![CDATA[31-JUIL-22 10:56:16 AM]]></name>
    <extensions>
      <line xmlns="http://www.topografix.com/GPX/gpx_style/0/2">
        <color>0000FF</color>
        <width>4</width>
      </line>
    </extensions>
    <trkseg>
      <trkpt lat="46.54192" lon="6.02029">
        <ele>883.59</ele>
        <time>2022-07-31T07:20:18Z</time>
      </trkpt>
      <trkpt lat="46.54195" lon="6.02028">
        <ele>882.63</ele>
        <time>2022-07-31T07:20:41Z</time>
      </trkpt>
      <trkpt lat="46.54196" lon="6.02028">
        <ele>882.15</ele>
        <time>2022-07-31T07:21:09Z</time>
      </trkpt>
      <trkpt lat="46.54193" lon="6.02025">
        <ele>882.15</ele>
        <time>2022-07-31T07:21:39Z</time>
      </trkpt>
      <trkpt lat="46.54192" lon="6.02018">
        <ele>882.63</ele>
        <time>2022-07-31T07:21:58Z</time>
      </trkpt>
      <trkpt lat="46.54216" lon="6.01998">
        <ele>882.15</ele>
        <time>2022-07-31T07:22:10Z</time>
      </trkpt>
      <trkpt lat="46.54225" lon="6.01987">
        <ele>881.67</ele>
        <time>2022-07-31T07:22:13Z</time>
      </trkpt>
      <trkpt lat="46.54226" lon="6.01981">
        <ele>880.71</ele>
        <time>2022-07-31T07:22:14Z</time>
      </trkpt>
      <trkpt lat="46.54226" lon="6.01973">
        <ele>881.19</ele>
        <time>2022-07-31T07:22:15Z</time>
      </trkpt>
      <trkpt lat="46.54225" lon="6.01965">
        <ele>880.22</ele>
        <time>2022-07-31T07:22:16Z</time>
      </trkpt>
      <trkpt lat="46.54224" lon="6.01958">
        <ele>880.22</ele>
        <time>2022-07-31T07:22:17Z</time>
      </trkpt>
      <trkpt lat="46.54222" lon="6.0195">
        <ele>880.22</ele>
        <time>2022-07-31T07:22:18Z</time>
      </trkpt>
      <trkpt lat="46.54218" lon="6.01927">
        <ele>879.74</ele>
        <time>2022-07-31T07:22:21Z</time>
      </trkpt>
      <trkpt lat="46.54217" lon="6.0192">
        <ele>879.74</ele>
        <time>2022-07-31T07:22:22Z</time>
      </trkpt>
      <trkpt lat="46.54218" lon="6.01914">
        <ele>879.74</ele>
        <time>2022-07-31T07:22:23Z</time>
      </trkpt>
      <trkpt lat="46.54219" lon="6.01908">
        <ele>879.74</ele>
        <time>2022-07-31T07:22:24Z</time>
      </trkpt>
      <trkpt lat="46.54221" lon="6.01904">
        <ele>879.74</ele>
        <time>2022-07-31T07:22:25Z</time>
      </trkpt>
      <trkpt lat="46.54224" lon="6.01902">
        <ele>880.22</ele>
        <time>2022-07-31T07:22:26Z</time>
      </trkpt>
      <trkpt lat="46.54227" lon="6.01901">
        <ele>879.74</ele>
        <time>2022-07-31T07:22:27Z</time>
      </trkpt>
      <trkpt lat="46.54229" lon="6.01902">
        <ele>880.22</ele>
        <time>2022-07-31T07:22:28Z</time>
      </trkpt>
      <trkpt lat="46.54231" lon="6.01902">
        <ele>879.74</ele>
        <time>2022-07-31T07:22:29Z</time>
      </trkpt>
      <trkpt lat="46.54233" lon="6.01903">
        <ele>880.22</ele>
        <time>2022-07-31T07:22:30Z</time>
      </trkpt>
      <trkpt lat="46.54234" lon="6.01904">
        <ele>880.22</ele>
        <time>2022-07-31T07:22:31Z</time>
      </trkpt>
      <trkpt lat="46.54255" lon="6.01906">
        <ele>883.11</ele>
        <time>2022-07-31T07:22:45Z</time>
      </trkpt>
      <trkpt lat="46.54279" lon="6.01899">
        <ele>885.51</ele>
        <time>2022-07-31T07:23:02Z</time>
      </trkpt>
      <trkpt lat="46.54298" lon="6.01897">
        <ele>888.4</ele>
        <time>2022-07-31T07:23:19Z</time>
      </trkpt>
      <trkpt lat="46.54317" lon="6.01892">
        <ele>890.8</ele>
        <time>2022-07-31T07:23:34Z</time>
      </trkpt>
      <trkpt lat="46.54336" lon="6.01885">
        <ele>893.68</ele>
        <time>2022-07-31T07:23:51Z</time>
      </trkpt>
      <trkpt lat="46.54354" lon="6.01881">
        <ele>896.57</ele>
        <time>2022-07-31T07:24:05Z</time>
      </trkpt>
      <trkpt lat="46.54355" lon="6.01882">
        <ele>897.05</ele>
        <time>2022-07-31T07:24:06Z</time>
      </trkpt>
      <trkpt lat="46.54356" lon="6.01883">
        <ele>897.05</ele>
        <time>2022-07-31T07:24:07Z</time>
      </trkpt>
      <trkpt lat="46.54363" lon="6.01884">
        <ele>898.01</ele>
        <time>2022-07-31T07:24:13Z</time>
      </trkpt>
      <trkpt lat="46.54376" lon="6.01899">
        <ele>899.93</ele>
        <time>2022-07-31T07:24:30Z</time>
      </trkpt>
      <trkpt lat="46.54382" lon="6.01906">
        <ele>901.37</ele>
        <time>2022-07-31T07:24:36Z</time>
      </trkpt>
      <trkpt lat="46.54395" lon="6.01926">
        <ele>903.78</ele>
        <time>2022-07-31T07:24:53Z</time>
      </trkpt>
      <trkpt lat="46.54398" lon="6.0193">
        <ele>904.74</ele>
        <time>2022-07-31T07:24:56Z</time>
      </trkpt>
      <trkpt lat="46.54421" lon="6.01941">
        <ele>906.18</ele>
        <time>2022-07-31T07:25:13Z</time>
      </trkpt>
      <trkpt lat="46.54435" lon="6.01923">
        <ele>909.54</ele>
        <time>2022-07-31T07:25:28Z</time>
      </trkpt>
      <trkpt lat="46.54454" lon="6.01882">
        <ele>910.51</ele>
        <time>2022-07-31T07:25:44Z</time>
      </trkpt>
      <trkpt lat="46.54469" lon="6.01872">
        <ele>909.06</ele>
        <time>2022-07-31T07:25:48Z</time>
      </trkpt>
      <trkpt lat="46.54497" lon="6.01867">
        <ele>908.58</ele>
        <time>2022-07-31T07:25:54Z</time>
      </trkpt>
      <trkpt lat="46.54545" lon="6.01869">
        <ele>909.54</ele>
        <time>2022-07-31T07:26:07Z</time>
      </trkpt>
      <trkpt lat="46.54576" lon="6.01874">
        <ele>911.47</ele>
        <time>2022-07-31T07:26:20Z</time>
      </trkpt>
      <trkpt lat="46.54607" lon="6.01876">
        <ele>914.35</ele>
        <time>2022-07-31T07:26:38Z</time>
      </trkpt>
      <trkpt lat="46.54633" lon="6.01883">
        <ele>916.27</ele>
        <time>2022-07-31T07:26:56Z</time>
      </trkpt>
      <trkpt lat="46.54651" lon="6.01885">
        <ele>919.16</ele>
        <time>2022-07-31T07:27:08Z</time>
      </trkpt>
      <trkpt lat="46.54667" lon="6.01891">
        <ele>920.6</ele>
        <time>2022-07-31T07:27:18Z</time>
      </trkpt>
      <trkpt lat="46.54694" lon="6.01898">
        <ele>923.48</ele>
        <time>2022-07-31T07:27:36Z</time>
      </trkpt>
      <trkpt lat="46.54727" lon="6.019">
        <ele>925.89</ele>
        <time>2022-07-31T07:27:56Z</time>
      </trkpt>
      <trkpt lat="46.54768" lon="6.01895">
        <ele>924.93</ele>
        <time>2022-07-31T07:28:10Z</time>
      </trkpt>
      <trkpt lat="46.54839" lon="6.0188">
        <ele>923.96</ele>
        <time>2022-07-31T07:28:25Z</time>
      </trkpt>
      <trkpt lat="46.54881" lon="6.01857">
        <ele>922.52</ele>
        <time>2022-07-31T07:28:35Z</time>
      </trkpt>
      <trkpt lat="46.54886" lon="6.01853">
        <ele>922.04</ele>
        <time>2022-07-31T07:28:36Z</time>
      </trkpt>
      <trkpt lat="46.5489" lon="6.01847">
        <ele>922.52</ele>
        <time>2022-07-31T07:28:37Z</time>
      </trkpt>
      <trkpt lat="46.54894" lon="6.01841">
        <ele>921.56</ele>
        <time>2022-07-31T07:28:38Z</time>
      </trkpt>
      <trkpt lat="46.54898" lon="6.01835">
        <ele>922.04</ele>
        <time>2022-07-31T07:28:39Z</time>
      </trkpt>
      <trkpt lat="46.5491" lon="6.01818">
        <ele>921.08</ele>
        <time>2022-07-31T07:28:42Z</time>
      </trkpt>
      <trkpt lat="46.54914" lon="6.01815">
        <ele>922.04</ele>
        <time>2022-07-31T07:28:43Z</time>
      </trkpt>
      <trkpt lat="46.54918" lon="6.01812">
        <ele>921.08</ele>
        <time>2022-07-31T07:28:44Z</time>
      </trkpt>
      <trkpt lat="46.54928" lon="6.01809">
        <ele>921.56</ele>
        <time>2022-07-31T07:28:46Z</time>
      </trkpt>
      <trkpt lat="46.54938" lon="6.01807">
        <ele>922.52</ele>
        <time>2022-07-31T07:28:48Z</time>
      </trkpt>
      <trkpt lat="46.55015" lon="6.01799">
        <ele>923.48</ele>
        <time>2022-07-31T07:29:06Z</time>
      </trkpt>
      <trkpt lat="46.55083" lon="6.01794">
        <ele>925.89</ele>
        <time>2022-07-31T07:29:25Z</time>
      </trkpt>
      <trkpt lat="46.55123" lon="6.01763">
        <ele>926.85</ele>
        <time>2022-07-31T07:29:40Z</time>
      </trkpt>
      <trkpt lat="46.55163" lon="6.01726">
        <ele>927.81</ele>
        <time>2022-07-31T07:29:54Z</time>
      </trkpt>
      <trkpt lat="46.55168" lon="6.01725">
        <ele>927.33</ele>
        <time>2022-07-31T07:29:55Z</time>
      </trkpt>
      <trkpt lat="46.5525" lon="6.01719">
        <ele>925.89</ele>
        <time>2022-07-31T07:30:12Z</time>
      </trkpt>
      <trkpt lat="46.55282" lon="6.01713">
        <ele>923.96</ele>
        <time>2022-07-31T07:30:17Z</time>
      </trkpt>
      <trkpt lat="46.55352" lon="6.01708">
        <ele>924.45</ele>
        <time>2022-07-31T07:30:28Z</time>
      </trkpt>
      <trkpt lat="46.55357" lon="6.01706">
        <ele>923.96</ele>
        <time>2022-07-31T07:30:29Z</time>
      </trkpt>
      <trkpt lat="46.55376" lon="6.01697">
        <ele>923.48</ele>
        <time>2022-07-31T07:30:33Z</time>
      </trkpt>
      <trkpt lat="46.55381" lon="6.01697">
        <ele>923.96</ele>
        <time>2022-07-31T07:30:34Z</time>
      </trkpt>
      <trkpt lat="46.55395" lon="6.01694">
        <ele>924.93</ele>
        <time>2022-07-31T07:30:37Z</time>
      </trkpt>
      <trkpt lat="46.55399" lon="6.01691">
        <ele>924.93</ele>
        <time>2022-07-31T07:30:38Z</time>
      </trkpt>
      <trkpt lat="46.55403" lon="6.01687">
        <ele>924.93</ele>
        <time>2022-07-31T07:30:39Z</time>
      </trkpt>
      <trkpt lat="46.55406" lon="6.01683">
        <ele>924.93</ele>
        <time>2022-07-31T07:30:40Z</time>
      </trkpt>
      <trkpt lat="46.55408" lon="6.01679">
        <ele>925.41</ele>
        <time>2022-07-31T07:30:41Z</time>
      </trkpt>
      <trkpt lat="46.55411" lon="6.01674">
        <ele>924.93</ele>
        <time>2022-07-31T07:30:42Z</time>
      </trkpt>
      <trkpt lat="46.55413" lon="6.0167">
        <ele>925.41</ele>
        <time>2022-07-31T07:30:43Z</time>
      </trkpt>
      <trkpt lat="46.55449" lon="6.0161">
        <ele>926.85</ele>
        <time>2022-07-31T07:30:58Z</time>
      </trkpt>
      <trkpt lat="46.55485" lon="6.01563">
        <ele>929.25</ele>
        <time>2022-07-31T07:31:14Z</time>
      </trkpt>
      <trkpt lat="46.55527" lon="6.01508">
        <ele>930.69</ele>
        <time>2022-07-31T07:31:33Z</time>
      </trkpt>
      <trkpt lat="46.55554" lon="6.01473">
        <ele>933.58</ele>
        <time>2022-07-31T07:31:51Z</time>
      </trkpt>
      <trkpt lat="46.5556" lon="6.0146">
        <ele>934.54</ele>
        <time>2022-07-31T07:31:57Z</time>
      </trkpt>
      <trkpt lat="46.55561" lon="6.01457">
        <ele>934.54</ele>
        <time>2022-07-31T07:31:58Z</time>
      </trkpt>
      <trkpt lat="46.55562" lon="6.01454">
        <ele>934.54</ele>
        <time>2022-07-31T07:31:59Z</time>
      </trkpt>
      <trkpt lat="46.55583" lon="6.0142">
        <ele>937.42</ele>
        <time>2022-07-31T07:32:17Z</time>
      </trkpt>
      <trkpt lat="46.55608" lon="6.01444">
        <ele>938.86</ele>
        <time>2022-07-31T07:32:30Z</time>
      </trkpt>
      <trkpt lat="46.55651" lon="6.01477">
        <ele>940.31</ele>
        <time>2022-07-31T07:32:48Z</time>
      </trkpt>
      <trkpt lat="46.55707" lon="6.01505">
        <ele>941.27</ele>
        <time>2022-07-31T07:33:08Z</time>
      </trkpt>
      <trkpt lat="46.55756" lon="6.01524">
        <ele>940.79</ele>
        <time>2022-07-31T07:33:22Z</time>
      </trkpt>
      <trkpt lat="46.55762" lon="6.0153">
        <ele>941.27</ele>
        <time>2022-07-31T07:33:24Z</time>
      </trkpt>
      <trkpt lat="46.55803" lon="6.01598">
        <ele>941.75</ele>
        <time>2022-07-31T07:33:40Z</time>
      </trkpt>
      <trkpt lat="46.55843" lon="6.01689">
        <ele>943.19</ele>
        <time>2022-07-31T07:34:00Z</time>
      </trkpt>
      <trkpt lat="46.55894" lon="6.01764">
        <ele>942.71</ele>
        <time>2022-07-31T07:34:18Z</time>
      </trkpt>
      <trkpt lat="46.55969" lon="6.01808">
        <ele>942.23</ele>
        <time>2022-07-31T07:34:38Z</time>
      </trkpt>
      <trkpt lat="46.56047" lon="6.01831">
        <ele>941.27</ele>
        <time>2022-07-31T07:34:55Z</time>
      </trkpt>
      <trkpt lat="46.56122" lon="6.01861">
        <ele>943.19</ele>
        <time>2022-07-31T07:35:14Z</time>
      </trkpt>
      <trkpt lat="46.5617" lon="6.01893">
        <ele>945.11</ele>
        <time>2022-07-31T07:35:31Z</time>
      </trkpt>
      <trkpt lat="46.56205" lon="6.0193">
        <ele>947.52</ele>
        <time>2022-07-31T07:35:46Z</time>
      </trkpt>
      <trkpt lat="46.56221" lon="6.01999">
        <ele>948</ele>
        <time>2022-07-31T07:36:01Z</time>
      </trkpt>
      <trkpt lat="46.56229" lon="6.02078">
        <ele>948.48</ele>
        <time>2022-07-31T07:36:18Z</time>
      </trkpt>
      <trkpt lat="46.56245" lon="6.02153">
        <ele>950.88</ele>
        <time>2022-07-31T07:36:38Z</time>
      </trkpt>
      <trkpt lat="46.5627" lon="6.02185">
        <ele>952.8</ele>
        <time>2022-07-31T07:36:52Z</time>
      </trkpt>
      <trkpt lat="46.56297" lon="6.02216">
        <ele>954.73</ele>
        <time>2022-07-31T07:37:08Z</time>
      </trkpt>
      <trkpt lat="46.56323" lon="6.02244">
        <ele>956.65</ele>
        <time>2022-07-31T07:37:24Z</time>
      </trkpt>
      <trkpt lat="46.56352" lon="6.02275">
        <ele>959.53</ele>
        <time>2022-07-31T07:37:42Z</time>
      </trkpt>
      <trkpt lat="46.56391" lon="6.02299">
        <ele>962.42</ele>
        <time>2022-07-31T07:38:01Z</time>
      </trkpt>
      <trkpt lat="46.56399" lon="6.023">
        <ele>963.38</ele>
        <time>2022-07-31T07:38:05Z</time>
      </trkpt>
      <trkpt lat="46.56437" lon="6.02309">
        <ele>964.34</ele>
        <time>2022-07-31T07:38:22Z</time>
      </trkpt>
      <trkpt lat="46.56478" lon="6.02313">
        <ele>965.78</ele>
        <time>2022-07-31T07:38:40Z</time>
      </trkpt>
      <trkpt lat="46.56516" lon="6.02317">
        <ele>966.74</ele>
        <time>2022-07-31T07:38:57Z</time>
      </trkpt>
      <trkpt lat="46.56556" lon="6.02335">
        <ele>968.18</ele>
        <time>2022-07-31T07:39:17Z</time>
      </trkpt>
      <trkpt lat="46.56594" lon="6.02356">
        <ele>970.11</ele>
        <time>2022-07-31T07:39:36Z</time>
      </trkpt>
      <trkpt lat="46.56636" lon="6.0239">
        <ele>972.03</ele>
        <time>2022-07-31T07:39:56Z</time>
      </trkpt>
      <trkpt lat="46.56646" lon="6.02402">
        <ele>972.99</ele>
        <time>2022-07-31T07:40:02Z</time>
      </trkpt>
      <trkpt lat="46.56676" lon="6.02438">
        <ele>973.95</ele>
        <time>2022-07-31T07:40:20Z</time>
      </trkpt>
      <trkpt lat="46.56697" lon="6.02473">
        <ele>973.95</ele>
        <time>2022-07-31T07:40:33Z</time>
      </trkpt>
      <trkpt lat="46.56732" lon="6.02524">
        <ele>976.36</ele>
        <time>2022-07-31T07:40:52Z</time>
      </trkpt>
      <trkpt lat="46.56775" lon="6.0255">
        <ele>977.32</ele>
        <time>2022-07-31T07:41:07Z</time>
      </trkpt>
      <trkpt lat="46.5683" lon="6.02577">
        <ele>978.76</ele>
        <time>2022-07-31T07:41:26Z</time>
      </trkpt>
      <trkpt lat="46.5688" lon="6.02633">
        <ele>981.16</ele>
        <time>2022-07-31T07:41:46Z</time>
      </trkpt>
      <trkpt lat="46.56908" lon="6.02696">
        <ele>982.12</ele>
        <time>2022-07-31T07:42:03Z</time>
      </trkpt>
      <trkpt lat="46.56934" lon="6.02769">
        <ele>984.05</ele>
        <time>2022-07-31T07:42:21Z</time>
      </trkpt>
      <trkpt lat="46.56961" lon="6.02847">
        <ele>985.49</ele>
        <time>2022-07-31T07:42:39Z</time>
      </trkpt>
      <trkpt lat="46.56991" lon="6.02933">
        <ele>987.41</ele>
        <time>2022-07-31T07:43:00Z</time>
      </trkpt>
      <trkpt lat="46.5703" lon="6.03019">
        <ele>988.85</ele>
        <time>2022-07-31T07:43:22Z</time>
      </trkpt>
      <trkpt lat="46.57081" lon="6.03087">
        <ele>989.81</ele>
        <time>2022-07-31T07:43:42Z</time>
      </trkpt>
      <trkpt lat="46.57112" lon="6.03127">
        <ele>990.78</ele>
        <time>2022-07-31T07:43:57Z</time>
      </trkpt>
      <trkpt lat="46.57154" lon="6.03188">
        <ele>993.18</ele>
        <time>2022-07-31T07:44:17Z</time>
      </trkpt>
      <trkpt lat="46.5718" lon="6.03232">
        <ele>995.1</ele>
        <time>2022-07-31T07:44:31Z</time>
      </trkpt>
      <trkpt lat="46.5722" lon="6.03283">
        <ele>997.51</ele>
        <time>2022-07-31T07:44:50Z</time>
      </trkpt>
      <trkpt lat="46.57259" lon="6.03306">
        <ele>998.47</ele>
        <time>2022-07-31T07:45:07Z</time>
      </trkpt>
      <trkpt lat="46.57306" lon="6.03335">
        <ele>999.91</ele>
        <time>2022-07-31T07:45:28Z</time>
      </trkpt>
      <trkpt lat="46.57337" lon="6.0337">
        <ele>1001.83</ele>
        <time>2022-07-31T07:45:45Z</time>
      </trkpt>
      <trkpt lat="46.57364" lon="6.03404">
        <ele>1002.79</ele>
        <time>2022-07-31T07:46:02Z</time>
      </trkpt>
      <trkpt lat="46.57388" lon="6.03437">
        <ele>1005.68</ele>
        <time>2022-07-31T07:46:21Z</time>
      </trkpt>
      <trkpt lat="46.5741" lon="6.03465">
        <ele>1007.6</ele>
        <time>2022-07-31T07:46:39Z</time>
      </trkpt>
      <trkpt lat="46.5743" lon="6.03491">
        <ele>1009.52</ele>
        <time>2022-07-31T07:46:56Z</time>
      </trkpt>
      <trkpt lat="46.57453" lon="6.0352">
        <ele>1012.41</ele>
        <time>2022-07-31T07:47:14Z</time>
      </trkpt>
      <trkpt lat="46.57477" lon="6.03551">
        <ele>1014.33</ele>
        <time>2022-07-31T07:47:33Z</time>
      </trkpt>
      <trkpt lat="46.57509" lon="6.03594">
        <ele>1016.73</ele>
        <time>2022-07-31T07:47:53Z</time>
      </trkpt>
      <trkpt lat="46.57537" lon="6.03627">
        <ele>1018.17</ele>
        <time>2022-07-31T07:48:10Z</time>
      </trkpt>
      <trkpt lat="46.57569" lon="6.03682">
        <ele>1019.13</ele>
        <time>2022-07-31T07:48:27Z</time>
      </trkpt>
      <trkpt lat="46.57601" lon="6.03775">
        <ele>1020.58</ele>
        <time>2022-07-31T07:48:49Z</time>
      </trkpt>
      <trkpt lat="46.5763" lon="6.03859">
        <ele>1022.98</ele>
        <time>2022-07-31T07:49:11Z</time>
      </trkpt>
      <trkpt lat="46.57658" lon="6.03947">
        <ele>1025.38</ele>
        <time>2022-07-31T07:49:34Z</time>
      </trkpt>
      <trkpt lat="46.5768" lon="6.04009">
        <ele>1026.34</ele>
        <time>2022-07-31T07:49:51Z</time>
      </trkpt>
      <trkpt lat="46.57697" lon="6.04077">
        <ele>1027.79</ele>
        <time>2022-07-31T07:50:10Z</time>
      </trkpt>
      <trkpt lat="46.57695" lon="6.0413">
        <ele>1030.19</ele>
        <time>2022-07-31T07:50:27Z</time>
      </trkpt>
      <trkpt lat="46.57689" lon="6.04197">
        <ele>1032.59</ele>
        <time>2022-07-31T07:50:48Z</time>
      </trkpt>
      <trkpt lat="46.57686" lon="6.04258">
        <ele>1035</ele>
        <time>2022-07-31T07:51:08Z</time>
      </trkpt>
      <trkpt lat="46.57681" lon="6.04326">
        <ele>1035.96</ele>
        <time>2022-07-31T07:51:27Z</time>
      </trkpt>
      <trkpt lat="46.57675" lon="6.04402">
        <ele>1037.88</ele>
        <time>2022-07-31T07:51:47Z</time>
      </trkpt>
      <trkpt lat="46.57667" lon="6.04483">
        <ele>1039.32</ele>
        <time>2022-07-31T07:52:08Z</time>
      </trkpt>
      <trkpt lat="46.57658" lon="6.04585">
        <ele>1037.88</ele>
        <time>2022-07-31T07:52:25Z</time>
      </trkpt>
      <trkpt lat="46.57664" lon="6.04636">
        <ele>1036.44</ele>
        <time>2022-07-31T07:52:32Z</time>
      </trkpt>
      <trkpt lat="46.57692" lon="6.04723">
        <ele>1036.44</ele>
        <time>2022-07-31T07:52:46Z</time>
      </trkpt>
      <trkpt lat="46.57713" lon="6.04781">
        <ele>1037.88</ele>
        <time>2022-07-31T07:53:01Z</time>
      </trkpt>
      <trkpt lat="46.57733" lon="6.04845">
        <ele>1039.8</ele>
        <time>2022-07-31T07:53:20Z</time>
      </trkpt>
      <trkpt lat="46.57756" lon="6.04897">
        <ele>1042.69</ele>
        <time>2022-07-31T07:53:38Z</time>
      </trkpt>
      <trkpt lat="46.57776" lon="6.04929">
        <ele>1044.13</ele>
        <time>2022-07-31T07:53:52Z</time>
      </trkpt>
      <trkpt lat="46.57806" lon="6.04973">
        <ele>1047.01</ele>
        <time>2022-07-31T07:54:14Z</time>
      </trkpt>
      <trkpt lat="46.57831" lon="6.05014">
        <ele>1049.42</ele>
        <time>2022-07-31T07:54:33Z</time>
      </trkpt>
      <trkpt lat="46.57854" lon="6.05059">
        <ele>1052.3</ele>
        <time>2022-07-31T07:54:53Z</time>
      </trkpt>
      <trkpt lat="46.57875" lon="6.05101">
        <ele>1054.22</ele>
        <time>2022-07-31T07:55:13Z</time>
      </trkpt>
      <trkpt lat="46.57891" lon="6.05135">
        <ele>1057.59</ele>
        <time>2022-07-31T07:55:29Z</time>
      </trkpt>
      <trkpt lat="46.57917" lon="6.05188">
        <ele>1058.55</ele>
        <time>2022-07-31T07:55:53Z</time>
      </trkpt>
      <trkpt lat="46.57938" lon="6.05231">
        <ele>1061.91</ele>
        <time>2022-07-31T07:56:12Z</time>
      </trkpt>
      <trkpt lat="46.57954" lon="6.05284">
        <ele>1063.84</ele>
        <time>2022-07-31T07:56:34Z</time>
      </trkpt>
      <trkpt lat="46.57967" lon="6.05323">
        <ele>1065.76</ele>
        <time>2022-07-31T07:56:52Z</time>
      </trkpt>
      <trkpt lat="46.57985" lon="6.05361">
        <ele>1067.68</ele>
        <time>2022-07-31T07:57:09Z</time>
      </trkpt>
      <trkpt lat="46.5801" lon="6.054">
        <ele>1070.57</ele>
        <time>2022-07-31T07:57:30Z</time>
      </trkpt>
      <trkpt lat="46.58035" lon="6.05436">
        <ele>1072.01</ele>
        <time>2022-07-31T07:57:50Z</time>
      </trkpt>
      <trkpt lat="46.5806" lon="6.05463">
        <ele>1074.41</ele>
        <time>2022-07-31T07:58:08Z</time>
      </trkpt>
      <trkpt lat="46.58081" lon="6.05487">
        <ele>1074.89</ele>
        <time>2022-07-31T07:58:24Z</time>
      </trkpt>
      <trkpt lat="46.581" lon="6.05519">
        <ele>1076.81</ele>
        <time>2022-07-31T07:58:40Z</time>
      </trkpt>
      <trkpt lat="46.5812" lon="6.05554">
        <ele>1079.7</ele>
        <time>2022-07-31T07:58:57Z</time>
      </trkpt>
      <trkpt lat="46.58145" lon="6.05579">
        <ele>1081.14</ele>
        <time>2022-07-31T07:59:13Z</time>
      </trkpt>
      <trkpt lat="46.5818" lon="6.056">
        <ele>1081.62</ele>
        <time>2022-07-31T07:59:30Z</time>
      </trkpt>
      <trkpt lat="46.58223" lon="6.0562">
        <ele>1081.14</ele>
        <time>2022-07-31T07:59:45Z</time>
      </trkpt>
      <trkpt lat="46.58265" lon="6.05649">
        <ele>1082.58</ele>
        <time>2022-07-31T08:00:01Z</time>
      </trkpt>
      <trkpt lat="46.58303" lon="6.057">
        <ele>1083.54</ele>
        <time>2022-07-31T08:00:17Z</time>
      </trkpt>
      <trkpt lat="46.5833" lon="6.05732">
        <ele>1084.99</ele>
        <time>2022-07-31T08:00:30Z</time>
      </trkpt>
      <trkpt lat="46.58369" lon="6.05781">
        <ele>1085.47</ele>
        <time>2022-07-31T08:00:47Z</time>
      </trkpt>
      <trkpt lat="46.58417" lon="6.05805">
        <ele>1086.43</ele>
        <time>2022-07-31T08:01:01Z</time>
      </trkpt>
      <trkpt lat="46.58457" lon="6.0582">
        <ele>1087.39</ele>
        <time>2022-07-31T08:01:13Z</time>
      </trkpt>
      <trkpt lat="46.58481" lon="6.05851">
        <ele>1088.35</ele>
        <time>2022-07-31T08:01:26Z</time>
      </trkpt>
      <trkpt lat="46.58487" lon="6.05859">
        <ele>1089.79</ele>
        <time>2022-07-31T08:01:29Z</time>
      </trkpt>
      <trkpt lat="46.5852" lon="6.05906">
        <ele>1091.71</ele>
        <time>2022-07-31T08:01:46Z</time>
      </trkpt>
      <trkpt lat="46.58548" lon="6.0595">
        <ele>1091.71</ele>
        <time>2022-07-31T08:02:01Z</time>
      </trkpt>
      <trkpt lat="46.58579" lon="6.06019">
        <ele>1089.79</ele>
        <time>2022-07-31T08:02:15Z</time>
      </trkpt>
      <trkpt lat="46.58615" lon="6.06105">
        <ele>1087.39</ele>
        <time>2022-07-31T08:02:26Z</time>
      </trkpt>
      <trkpt lat="46.58617" lon="6.06113">
        <ele>1087.39</ele>
        <time>2022-07-31T08:02:27Z</time>
      </trkpt>
      <trkpt lat="46.58625" lon="6.06145">
        <ele>1086.91</ele>
        <time>2022-07-31T08:02:31Z</time>
      </trkpt>
      <trkpt lat="46.58625" lon="6.06154">
        <ele>1086.43</ele>
        <time>2022-07-31T08:02:32Z</time>
      </trkpt>
      <trkpt lat="46.58625" lon="6.06161">
        <ele>1086.91</ele>
        <time>2022-07-31T08:02:33Z</time>
      </trkpt>
      <trkpt lat="46.58625" lon="6.06169">
        <ele>1086.91</ele>
        <time>2022-07-31T08:02:34Z</time>
      </trkpt>
      <trkpt lat="46.58624" lon="6.06176">
        <ele>1086.43</ele>
        <time>2022-07-31T08:02:35Z</time>
      </trkpt>
      <trkpt lat="46.58622" lon="6.06182">
        <ele>1085.95</ele>
        <time>2022-07-31T08:02:36Z</time>
      </trkpt>
      <trkpt lat="46.58621" lon="6.06188">
        <ele>1086.43</ele>
        <time>2022-07-31T08:02:37Z</time>
      </trkpt>
      <trkpt lat="46.58619" lon="6.06194">
        <ele>1086.43</ele>
        <time>2022-07-31T08:02:38Z</time>
      </trkpt>
      <trkpt lat="46.58617" lon="6.06199">
        <ele>1086.43</ele>
        <time>2022-07-31T08:02:39Z</time>
      </trkpt>
      <trkpt lat="46.58616" lon="6.06204">
        <ele>1086.91</ele>
        <time>2022-07-31T08:02:40Z</time>
      </trkpt>
      <trkpt lat="46.5859" lon="6.06279">
        <ele>1086.91</ele>
        <time>2022-07-31T08:02:55Z</time>
      </trkpt>
      <trkpt lat="46.58574" lon="6.06318">
        <ele>1087.39</ele>
        <time>2022-07-31T08:03:03Z</time>
      </trkpt>
      <trkpt lat="46.58544" lon="6.06417">
        <ele>1085.47</ele>
        <time>2022-07-31T08:03:17Z</time>
      </trkpt>
      <trkpt lat="46.5854" lon="6.06432">
        <ele>1085.95</ele>
        <time>2022-07-31T08:03:19Z</time>
      </trkpt>
      <trkpt lat="46.5854" lon="6.06439">
        <ele>1085.95</ele>
        <time>2022-07-31T08:03:20Z</time>
      </trkpt>
      <trkpt lat="46.5854" lon="6.06445">
        <ele>1086.43</ele>
        <time>2022-07-31T08:03:21Z</time>
      </trkpt>
      <trkpt lat="46.58542" lon="6.06497">
        <ele>1087.39</ele>
        <time>2022-07-31T08:03:34Z</time>
      </trkpt>
      <trkpt lat="46.58545" lon="6.06552">
        <ele>1089.31</ele>
        <time>2022-07-31T08:03:49Z</time>
      </trkpt>
      <trkpt lat="46.58548" lon="6.06595">
        <ele>1091.71</ele>
        <time>2022-07-31T08:04:03Z</time>
      </trkpt>
      <trkpt lat="46.58548" lon="6.06612">
        <ele>1092.2</ele>
        <time>2022-07-31T08:04:09Z</time>
      </trkpt>
      <trkpt lat="46.58547" lon="6.06615">
        <ele>1092.2</ele>
        <time>2022-07-31T08:04:10Z</time>
      </trkpt>
      <trkpt lat="46.58547" lon="6.06617">
        <ele>1092.2</ele>
        <time>2022-07-31T08:04:11Z</time>
      </trkpt>
      <trkpt lat="46.58539" lon="6.06657">
        <ele>1093.16</ele>
        <time>2022-07-31T08:04:24Z</time>
      </trkpt>
      <trkpt lat="46.5852" lon="6.06699">
        <ele>1094.12</ele>
        <time>2022-07-31T08:04:39Z</time>
      </trkpt>
      <trkpt lat="46.58491" lon="6.06767">
        <ele>1094.12</ele>
        <time>2022-07-31T08:04:53Z</time>
      </trkpt>
      <trkpt lat="46.58452" lon="6.06838">
        <ele>1092.2</ele>
        <time>2022-07-31T08:05:04Z</time>
      </trkpt>
      <trkpt lat="46.58404" lon="6.06934">
        <ele>1091.71</ele>
        <time>2022-07-31T08:05:19Z</time>
      </trkpt>
      <trkpt lat="46.58401" lon="6.06951">
        <ele>1091.23</ele>
        <time>2022-07-31T08:05:21Z</time>
      </trkpt>
      <trkpt lat="46.58401" lon="6.06958">
        <ele>1090.75</ele>
        <time>2022-07-31T08:05:22Z</time>
      </trkpt>
      <trkpt lat="46.5841" lon="6.07029">
        <ele>1091.71</ele>
        <time>2022-07-31T08:05:33Z</time>
      </trkpt>
      <trkpt lat="46.5842" lon="6.07092">
        <ele>1094.12</ele>
        <time>2022-07-31T08:05:49Z</time>
      </trkpt>
      <trkpt lat="46.58425" lon="6.07162">
        <ele>1095.08</ele>
        <time>2022-07-31T08:06:07Z</time>
      </trkpt>
      <trkpt lat="46.58425" lon="6.07238">
        <ele>1095.56</ele>
        <time>2022-07-31T08:06:22Z</time>
      </trkpt>
      <trkpt lat="46.58417" lon="6.07315">
        <ele>1096.04</ele>
        <time>2022-07-31T08:06:36Z</time>
      </trkpt>
      <trkpt lat="46.58404" lon="6.07394">
        <ele>1097</ele>
        <time>2022-07-31T08:06:50Z</time>
      </trkpt>
      <trkpt lat="46.58417" lon="6.07439">
        <ele>1097.48</ele>
        <time>2022-07-31T08:07:01Z</time>
      </trkpt>
      <trkpt lat="46.58434" lon="6.07504">
        <ele>1097.48</ele>
        <time>2022-07-31T08:07:13Z</time>
      </trkpt>
      <trkpt lat="46.5846" lon="6.07545">
        <ele>1098.92</ele>
        <time>2022-07-31T08:07:25Z</time>
      </trkpt>
      <trkpt lat="46.58478" lon="6.07578">
        <ele>1100.85</ele>
        <time>2022-07-31T08:07:40Z</time>
      </trkpt>
      <trkpt lat="46.58481" lon="6.07611">
        <ele>1102.29</ele>
        <time>2022-07-31T08:07:53Z</time>
      </trkpt>
      <trkpt lat="46.58474" lon="6.07644">
        <ele>1103.73</ele>
        <time>2022-07-31T08:08:09Z</time>
      </trkpt>
      <trkpt lat="46.58473" lon="6.07647">
        <ele>1103.25</ele>
        <time>2022-07-31T08:08:10Z</time>
      </trkpt>
      <trkpt lat="46.58472" lon="6.07651">
        <ele>1103.73</ele>
        <time>2022-07-31T08:08:11Z</time>
      </trkpt>
      <trkpt lat="46.58469" lon="6.07666">
        <ele>1104.21</ele>
        <time>2022-07-31T08:08:17Z</time>
      </trkpt>
      <trkpt lat="46.58468" lon="6.07669">
        <ele>1104.21</ele>
        <time>2022-07-31T08:08:18Z</time>
      </trkpt>
      <trkpt lat="46.5847" lon="6.07733">
        <ele>1105.65</ele>
        <time>2022-07-31T08:08:31Z</time>
      </trkpt>
      <trkpt lat="46.58483" lon="6.07828">
        <ele>1106.61</ele>
        <time>2022-07-31T08:08:45Z</time>
      </trkpt>
      <trkpt lat="46.58485" lon="6.07885">
        <ele>1106.61</ele>
        <time>2022-07-31T08:08:58Z</time>
      </trkpt>
      <trkpt lat="46.58481" lon="6.07929">
        <ele>1107.1</ele>
        <time>2022-07-31T08:09:10Z</time>
      </trkpt>
      <trkpt lat="46.58504" lon="6.07994">
        <ele>1107.58</ele>
        <time>2022-07-31T08:09:23Z</time>
      </trkpt>
      <trkpt lat="46.58509" lon="6.08059">
        <ele>1108.06</ele>
        <time>2022-07-31T08:09:35Z</time>
      </trkpt>
      <trkpt lat="46.58501" lon="6.08129">
        <ele>1107.58</ele>
        <time>2022-07-31T08:09:48Z</time>
      </trkpt>
      <trkpt lat="46.58494" lon="6.08154">
        <ele>1108.06</ele>
        <time>2022-07-31T08:09:52Z</time>
      </trkpt>
      <trkpt lat="46.58472" lon="6.08256">
        <ele>1109.5</ele>
        <time>2022-07-31T08:10:05Z</time>
      </trkpt>
      <trkpt lat="46.58446" lon="6.08329">
        <ele>1110.46</ele>
        <time>2022-07-31T08:10:19Z</time>
      </trkpt>
      <trkpt lat="46.58427" lon="6.08409">
        <ele>1111.42</ele>
        <time>2022-07-31T08:10:33Z</time>
      </trkpt>
      <trkpt lat="46.58431" lon="6.08476">
        <ele>1113.34</ele>
        <time>2022-07-31T08:10:47Z</time>
      </trkpt>
      <trkpt lat="46.58442" lon="6.08531">
        <ele>1114.31</ele>
        <time>2022-07-31T08:11:00Z</time>
      </trkpt>
      <trkpt lat="46.58458" lon="6.08599">
        <ele>1114.79</ele>
        <time>2022-07-31T08:11:15Z</time>
      </trkpt>
      <trkpt lat="46.58473" lon="6.08683">
        <ele>1115.75</ele>
        <time>2022-07-31T08:11:29Z</time>
      </trkpt>
      <trkpt lat="46.58466" lon="6.08768">
        <ele>1116.71</ele>
        <time>2022-07-31T08:11:44Z</time>
      </trkpt>
      <trkpt lat="46.58436" lon="6.08856">
        <ele>1117.67</ele>
        <time>2022-07-31T08:12:02Z</time>
      </trkpt>
      <trkpt lat="46.58416" lon="6.08923">
        <ele>1118.15</ele>
        <time>2022-07-31T08:12:17Z</time>
      </trkpt>
      <trkpt lat="46.58405" lon="6.09014">
        <ele>1117.19</ele>
        <time>2022-07-31T08:12:33Z</time>
      </trkpt>
      <trkpt lat="46.58397" lon="6.09122">
        <ele>1117.19</ele>
        <time>2022-07-31T08:12:50Z</time>
      </trkpt>
      <trkpt lat="46.58389" lon="6.09222">
        <ele>1116.71</ele>
        <time>2022-07-31T08:13:05Z</time>
      </trkpt>
      <trkpt lat="46.58385" lon="6.09282">
        <ele>1116.23</ele>
        <time>2022-07-31T08:13:15Z</time>
      </trkpt>
      <trkpt lat="46.58378" lon="6.09391">
        <ele>1115.27</ele>
        <time>2022-07-31T08:13:33Z</time>
      </trkpt>
      <trkpt lat="46.58382" lon="6.09485">
        <ele>1114.79</ele>
        <time>2022-07-31T08:13:49Z</time>
      </trkpt>
      <trkpt lat="46.5839" lon="6.09499">
        <ele>1115.27</ele>
        <time>2022-07-31T08:13:52Z</time>
      </trkpt>
      <trkpt lat="46.58392" lon="6.09504">
        <ele>1115.27</ele>
        <time>2022-07-31T08:13:53Z</time>
      </trkpt>
      <trkpt lat="46.58393" lon="6.09511">
        <ele>1115.27</ele>
        <time>2022-07-31T08:13:54Z</time>
      </trkpt>
      <trkpt lat="46.58394" lon="6.09517">
        <ele>1115.27</ele>
        <time>2022-07-31T08:13:55Z</time>
      </trkpt>
      <trkpt lat="46.58395" lon="6.09523">
        <ele>1114.79</ele>
        <time>2022-07-31T08:13:56Z</time>
      </trkpt>
      <trkpt lat="46.58394" lon="6.09529">
        <ele>1114.79</ele>
        <time>2022-07-31T08:13:57Z</time>
      </trkpt>
      <trkpt lat="46.58392" lon="6.09535">
        <ele>1114.79</ele>
        <time>2022-07-31T08:13:58Z</time>
      </trkpt>
      <trkpt lat="46.5839" lon="6.0954">
        <ele>1114.79</ele>
        <time>2022-07-31T08:13:59Z</time>
      </trkpt>
      <trkpt lat="46.58386" lon="6.09543">
        <ele>1115.27</ele>
        <time>2022-07-31T08:14:00Z</time>
      </trkpt>
      <trkpt lat="46.58382" lon="6.09545">
        <ele>1114.79</ele>
        <time>2022-07-31T08:14:01Z</time>
      </trkpt>
      <trkpt lat="46.58378" lon="6.09545">
        <ele>1114.79</ele>
        <time>2022-07-31T08:14:02Z</time>
      </trkpt>
      <trkpt lat="46.58374" lon="6.09542">
        <ele>1114.79</ele>
        <time>2022-07-31T08:14:03Z</time>
      </trkpt>
      <trkpt lat="46.58371" lon="6.09538">
        <ele>1114.31</ele>
        <time>2022-07-31T08:14:04Z</time>
      </trkpt>
      <trkpt lat="46.58368" lon="6.09532">
        <ele>1114.31</ele>
        <time>2022-07-31T08:14:05Z</time>
      </trkpt>
      <trkpt lat="46.58367" lon="6.09525">
        <ele>1114.31</ele>
        <time>2022-07-31T08:14:06Z</time>
      </trkpt>
      <trkpt lat="46.58365" lon="6.09517">
        <ele>1113.82</ele>
        <time>2022-07-31T08:14:07Z</time>
      </trkpt>
      <trkpt lat="46.58338" lon="6.09409">
        <ele>1110.94</ele>
        <time>2022-07-31T08:14:19Z</time>
      </trkpt>
      <trkpt lat="46.58279" lon="6.09284">
        <ele>1108.06</ele>
        <time>2022-07-31T08:14:33Z</time>
      </trkpt>
      <trkpt lat="46.58231" lon="6.09134">
        <ele>1104.69</ele>
        <time>2022-07-31T08:14:48Z</time>
      </trkpt>
      <trkpt lat="46.58195" lon="6.08978">
        <ele>1103.73</ele>
        <time>2022-07-31T08:15:03Z</time>
      </trkpt>
      <trkpt lat="46.58175" lon="6.08887">
        <ele>1105.17</ele>
        <time>2022-07-31T08:15:18Z</time>
      </trkpt>
      <trkpt lat="46.58154" lon="6.088">
        <ele>1107.1</ele>
        <time>2022-07-31T08:15:36Z</time>
      </trkpt>
      <trkpt lat="46.58136" lon="6.08755">
        <ele>1107.58</ele>
        <time>2022-07-31T08:15:47Z</time>
      </trkpt>
      <trkpt lat="46.58135" lon="6.08753">
        <ele>1107.58</ele>
        <time>2022-07-31T08:15:48Z</time>
      </trkpt>
      <trkpt lat="46.58135" lon="6.08751">
        <ele>1107.58</ele>
        <time>2022-07-31T08:15:49Z</time>
      </trkpt>
      <trkpt lat="46.58134" lon="6.08749">
        <ele>1108.06</ele>
        <time>2022-07-31T08:15:50Z</time>
      </trkpt>
      <trkpt lat="46.58133" lon="6.08748">
        <ele>1108.06</ele>
        <time>2022-07-31T08:15:51Z</time>
      </trkpt>
      <trkpt lat="46.58114" lon="6.08723">
        <ele>1108.54</ele>
        <time>2022-07-31T08:16:05Z</time>
      </trkpt>
      <trkpt lat="46.58075" lon="6.08688">
        <ele>1109.98</ele>
        <time>2022-07-31T08:16:21Z</time>
      </trkpt>
      <trkpt lat="46.58036" lon="6.08661">
        <ele>1110.46</ele>
        <time>2022-07-31T08:16:38Z</time>
      </trkpt>
      <trkpt lat="46.58035" lon="6.08656">
        <ele>1109.98</ele>
        <time>2022-07-31T08:16:51Z</time>
      </trkpt>
      <trkpt lat="46.58033" lon="6.08652">
        <ele>1109.98</ele>
        <time>2022-07-31T08:16:57Z</time>
      </trkpt>
      <trkpt lat="46.58032" lon="6.08651">
        <ele>1110.46</ele>
        <time>2022-07-31T08:16:58Z</time>
      </trkpt>
      <trkpt lat="46.58031" lon="6.0865">
        <ele>1110.46</ele>
        <time>2022-07-31T08:16:59Z</time>
      </trkpt>
      <trkpt lat="46.58027" lon="6.08655">
        <ele>1110.46</ele>
        <time>2022-07-31T08:17:17Z</time>
      </trkpt>
      <trkpt lat="46.58025" lon="6.08653">
        <ele>1110.94</ele>
        <time>2022-07-31T08:17:22Z</time>
      </trkpt>
      <trkpt lat="46.58024" lon="6.08654">
        <ele>1110.94</ele>
        <time>2022-07-31T08:17:23Z</time>
      </trkpt>
      <trkpt lat="46.58023" lon="6.08654">
        <ele>1110.94</ele>
        <time>2022-07-31T08:17:24Z</time>
      </trkpt>
      <trkpt lat="46.58021" lon="6.08654">
        <ele>1110.94</ele>
        <time>2022-07-31T08:17:25Z</time>
      </trkpt>
      <trkpt lat="46.58019" lon="6.08653">
        <ele>1110.94</ele>
        <time>2022-07-31T08:17:26Z</time>
      </trkpt>
      <trkpt lat="46.58017" lon="6.08652">
        <ele>1110.94</ele>
        <time>2022-07-31T08:17:27Z</time>
      </trkpt>
      <trkpt lat="46.58014" lon="6.0865">
        <ele>1110.94</ele>
        <time>2022-07-31T08:17:28Z</time>
      </trkpt>
      <trkpt lat="46.58011" lon="6.08648">
        <ele>1110.94</ele>
        <time>2022-07-31T08:17:29Z</time>
      </trkpt>
      <trkpt lat="46.58008" lon="6.08647">
        <ele>1110.94</ele>
        <time>2022-07-31T08:17:30Z</time>
      </trkpt>
      <trkpt lat="46.57953" lon="6.08622">
        <ele>1112.86</ele>
        <time>2022-07-31T08:17:47Z</time>
      </trkpt>
      <trkpt lat="46.57894" lon="6.08611">
        <ele>1114.79</ele>
        <time>2022-07-31T08:18:05Z</time>
      </trkpt>
      <trkpt lat="46.57853" lon="6.08611">
        <ele>1116.71</ele>
        <time>2022-07-31T08:18:21Z</time>
      </trkpt>
      <trkpt lat="46.57813" lon="6.08601">
        <ele>1120.07</ele>
        <time>2022-07-31T08:18:37Z</time>
      </trkpt>
      <trkpt lat="46.57783" lon="6.08576">
        <ele>1121.03</ele>
        <time>2022-07-31T08:18:52Z</time>
      </trkpt>
      <trkpt lat="46.57783" lon="6.08573">
        <ele>1120.55</ele>
        <time>2022-07-31T08:18:53Z</time>
      </trkpt>
      <trkpt lat="46.57784" lon="6.08572">
        <ele>1120.07</ele>
        <time>2022-07-31T08:19:05Z</time>
      </trkpt>
      <trkpt lat="46.57785" lon="6.08571">
        <ele>1120.07</ele>
        <time>2022-07-31T08:19:29Z</time>
      </trkpt>
      <trkpt lat="46.57786" lon="6.08578">
        <ele>1120.55</ele>
        <time>2022-07-31T08:19:56Z</time>
      </trkpt>
      <trkpt lat="46.57786" lon="6.08577">
        <ele>1120.55</ele>
        <time>2022-07-31T08:20:13Z</time>
      </trkpt>
      <trkpt lat="46.57781" lon="6.08577">
        <ele>1121.03</ele>
        <time>2022-07-31T08:20:16Z</time>
      </trkpt>
      <trkpt lat="46.57779" lon="6.08576">
        <ele>1120.55</ele>
        <time>2022-07-31T08:20:17Z</time>
      </trkpt>
      <trkpt lat="46.57776" lon="6.08572">
        <ele>1121.52</ele>
        <time>2022-07-31T08:20:18Z</time>
      </trkpt>
      <trkpt lat="46.57774" lon="6.08568">
        <ele>1121.03</ele>
        <time>2022-07-31T08:20:19Z</time>
      </trkpt>
      <trkpt lat="46.57771" lon="6.08564">
        <ele>1121.52</ele>
        <time>2022-07-31T08:20:20Z</time>
      </trkpt>
      <trkpt lat="46.57753" lon="6.08528">
        <ele>1121.03</ele>
        <time>2022-07-31T08:20:28Z</time>
      </trkpt>
      <trkpt lat="46.57724" lon="6.08436">
        <ele>1119.59</ele>
        <time>2022-07-31T08:20:41Z</time>
      </trkpt>
      <trkpt lat="46.5772" lon="6.08427">
        <ele>1118.63</ele>
        <time>2022-07-31T08:20:42Z</time>
      </trkpt>
      <trkpt lat="46.57716" lon="6.0842">
        <ele>1118.15</ele>
        <time>2022-07-31T08:20:43Z</time>
      </trkpt>
      <trkpt lat="46.57711" lon="6.08413">
        <ele>1118.15</ele>
        <time>2022-07-31T08:20:44Z</time>
      </trkpt>
      <trkpt lat="46.57705" lon="6.08406">
        <ele>1117.19</ele>
        <time>2022-07-31T08:20:45Z</time>
      </trkpt>
      <trkpt lat="46.57699" lon="6.08401">
        <ele>1117.67</ele>
        <time>2022-07-31T08:20:46Z</time>
      </trkpt>
      <trkpt lat="46.57692" lon="6.08396">
        <ele>1117.19</ele>
        <time>2022-07-31T08:20:47Z</time>
      </trkpt>
      <trkpt lat="46.57685" lon="6.08393">
        <ele>1116.71</ele>
        <time>2022-07-31T08:20:48Z</time>
      </trkpt>
      <trkpt lat="46.57678" lon="6.0839">
        <ele>1116.71</ele>
        <time>2022-07-31T08:20:49Z</time>
      </trkpt>
      <trkpt lat="46.5767" lon="6.08388">
        <ele>1116.71</ele>
        <time>2022-07-31T08:20:50Z</time>
      </trkpt>
      <trkpt lat="46.57597" lon="6.08361">
        <ele>1114.31</ele>
        <time>2022-07-31T08:21:00Z</time>
      </trkpt>
      <trkpt lat="46.57491" lon="6.08288">
        <ele>1113.82</ele>
        <time>2022-07-31T08:21:18Z</time>
      </trkpt>
      <trkpt lat="46.57425" lon="6.08191">
        <ele>1110.46</ele>
        <time>2022-07-31T08:21:32Z</time>
      </trkpt>
      <trkpt lat="46.57374" lon="6.08101">
        <ele>1109.5</ele>
        <time>2022-07-31T08:21:43Z</time>
      </trkpt>
      <trkpt lat="46.57369" lon="6.08095">
        <ele>1108.54</ele>
        <time>2022-07-31T08:21:44Z</time>
      </trkpt>
      <trkpt lat="46.57363" lon="6.08089">
        <ele>1108.54</ele>
        <time>2022-07-31T08:21:45Z</time>
      </trkpt>
      <trkpt lat="46.57356" lon="6.08085">
        <ele>1109.02</ele>
        <time>2022-07-31T08:21:46Z</time>
      </trkpt>
      <trkpt lat="46.5735" lon="6.08082">
        <ele>1108.54</ele>
        <time>2022-07-31T08:21:47Z</time>
      </trkpt>
      <trkpt lat="46.57344" lon="6.0808">
        <ele>1109.02</ele>
        <time>2022-07-31T08:21:48Z</time>
      </trkpt>
      <trkpt lat="46.57338" lon="6.08078">
        <ele>1109.02</ele>
        <time>2022-07-31T08:21:49Z</time>
      </trkpt>
      <trkpt lat="46.57332" lon="6.08079">
        <ele>1109.02</ele>
        <time>2022-07-31T08:21:50Z</time>
      </trkpt>
      <trkpt lat="46.57327" lon="6.0808">
        <ele>1109.02</ele>
        <time>2022-07-31T08:21:51Z</time>
      </trkpt>
      <trkpt lat="46.57313" lon="6.0808">
        <ele>1109.98</ele>
        <time>2022-07-31T08:21:54Z</time>
      </trkpt>
      <trkpt lat="46.57301" lon="6.08083">
        <ele>1110.46</ele>
        <time>2022-07-31T08:21:57Z</time>
      </trkpt>
      <trkpt lat="46.57297" lon="6.08084">
        <ele>1110.46</ele>
        <time>2022-07-31T08:21:58Z</time>
      </trkpt>
      <trkpt lat="46.57293" lon="6.08086">
        <ele>1110.94</ele>
        <time>2022-07-31T08:21:59Z</time>
      </trkpt>
      <trkpt lat="46.57247" lon="6.08126">
        <ele>1113.82</ele>
        <time>2022-07-31T08:22:15Z</time>
      </trkpt>
      <trkpt lat="46.57207" lon="6.08164">
        <ele>1116.23</ele>
        <time>2022-07-31T08:22:30Z</time>
      </trkpt>
      <trkpt lat="46.57169" lon="6.08175">
        <ele>1118.63</ele>
        <time>2022-07-31T08:22:44Z</time>
      </trkpt>
      <trkpt lat="46.57127" lon="6.08155">
        <ele>1120.55</ele>
        <time>2022-07-31T08:22:59Z</time>
      </trkpt>
      <trkpt lat="46.57097" lon="6.08089">
        <ele>1121.52</ele>
        <time>2022-07-31T08:23:14Z</time>
      </trkpt>
      <trkpt lat="46.57074" lon="6.08029">
        <ele>1120.07</ele>
        <time>2022-07-31T08:23:24Z</time>
      </trkpt>
      <trkpt lat="46.57057" lon="6.0799">
        <ele>1118.15</ele>
        <time>2022-07-31T08:23:30Z</time>
      </trkpt>
      <trkpt lat="46.57032" lon="6.07897">
        <ele>1115.75</ele>
        <time>2022-07-31T08:23:41Z</time>
      </trkpt>
      <trkpt lat="46.57031" lon="6.07887">
        <ele>1115.75</ele>
        <time>2022-07-31T08:23:42Z</time>
      </trkpt>
      <trkpt lat="46.5703" lon="6.07833">
        <ele>1113.82</ele>
        <time>2022-07-31T08:23:47Z</time>
      </trkpt>
      <trkpt lat="46.57028" lon="6.07822">
        <ele>1113.34</ele>
        <time>2022-07-31T08:23:48Z</time>
      </trkpt>
      <trkpt lat="46.57024" lon="6.07811">
        <ele>1113.82</ele>
        <time>2022-07-31T08:23:49Z</time>
      </trkpt>
      <trkpt lat="46.57018" lon="6.07801">
        <ele>1113.34</ele>
        <time>2022-07-31T08:23:50Z</time>
      </trkpt>
      <trkpt lat="46.57012" lon="6.07792">
        <ele>1112.86</ele>
        <time>2022-07-31T08:23:51Z</time>
      </trkpt>
      <trkpt lat="46.57005" lon="6.07784">
        <ele>1112.86</ele>
        <time>2022-07-31T08:23:52Z</time>
      </trkpt>
      <trkpt lat="46.56998" lon="6.07777">
        <ele>1112.38</ele>
        <time>2022-07-31T08:23:53Z</time>
      </trkpt>
      <trkpt lat="46.5699" lon="6.07771">
        <ele>1112.38</ele>
        <time>2022-07-31T08:23:54Z</time>
      </trkpt>
      <trkpt lat="46.5696" lon="6.07758">
        <ele>1112.86</ele>
        <time>2022-07-31T08:23:58Z</time>
      </trkpt>
      <trkpt lat="46.56888" lon="6.07726">
        <ele>1110.94</ele>
        <time>2022-07-31T08:24:09Z</time>
      </trkpt>
      <trkpt lat="46.56881" lon="6.07726">
        <ele>1110.46</ele>
        <time>2022-07-31T08:24:10Z</time>
      </trkpt>
      <trkpt lat="46.56874" lon="6.07726">
        <ele>1110.46</ele>
        <time>2022-07-31T08:24:11Z</time>
      </trkpt>
      <trkpt lat="46.56867" lon="6.07728">
        <ele>1109.98</ele>
        <time>2022-07-31T08:24:12Z</time>
      </trkpt>
      <trkpt lat="46.5686" lon="6.07731">
        <ele>1109.98</ele>
        <time>2022-07-31T08:24:13Z</time>
      </trkpt>
      <trkpt lat="46.56854" lon="6.07734">
        <ele>1109.98</ele>
        <time>2022-07-31T08:24:14Z</time>
      </trkpt>
      <trkpt lat="46.56848" lon="6.07739">
        <ele>1109.98</ele>
        <time>2022-07-31T08:24:15Z</time>
      </trkpt>
      <trkpt lat="46.56842" lon="6.07744">
        <ele>1109.98</ele>
        <time>2022-07-31T08:24:16Z</time>
      </trkpt>
      <trkpt lat="46.56837" lon="6.07749">
        <ele>1110.46</ele>
        <time>2022-07-31T08:24:17Z</time>
      </trkpt>
      <trkpt lat="46.56832" lon="6.07755">
        <ele>1109.5</ele>
        <time>2022-07-31T08:24:18Z</time>
      </trkpt>
      <trkpt lat="46.56766" lon="6.07848">
        <ele>1109.02</ele>
        <time>2022-07-31T08:24:35Z</time>
      </trkpt>
      <trkpt lat="46.56713" lon="6.07921">
        <ele>1107.58</ele>
        <time>2022-07-31T08:24:51Z</time>
      </trkpt>
      <trkpt lat="46.56689" lon="6.0796">
        <ele>1105.65</ele>
        <time>2022-07-31T08:25:00Z</time>
      </trkpt>
      <trkpt lat="46.56691" lon="6.07962">
        <ele>1106.13</ele>
        <time>2022-07-31T08:25:01Z</time>
      </trkpt>
      <trkpt lat="46.56693" lon="6.07964">
        <ele>1106.61</ele>
        <time>2022-07-31T08:25:02Z</time>
      </trkpt>
      <trkpt lat="46.56695" lon="6.07965">
        <ele>1106.13</ele>
        <time>2022-07-31T08:25:03Z</time>
      </trkpt>
      <trkpt lat="46.56697" lon="6.07968">
        <ele>1105.65</ele>
        <time>2022-07-31T08:25:04Z</time>
      </trkpt>
      <trkpt lat="46.56699" lon="6.07971">
        <ele>1105.65</ele>
        <time>2022-07-31T08:25:05Z</time>
      </trkpt>
      <trkpt lat="46.56701" lon="6.07974">
        <ele>1105.65</ele>
        <time>2022-07-31T08:25:06Z</time>
      </trkpt>
      <trkpt lat="46.56708" lon="6.07984">
        <ele>1105.17</ele>
        <time>2022-07-31T08:25:11Z</time>
      </trkpt>
      <trkpt lat="46.56708" lon="6.07983">
        <ele>1105.17</ele>
        <time>2022-07-31T08:25:23Z</time>
      </trkpt>
      <trkpt lat="46.56708" lon="6.07983">
        <ele>1105.65</ele>
        <time>2022-07-31T08:25:59Z</time>
      </trkpt>
      <trkpt lat="46.56706" lon="6.0798">
        <ele>1105.17</ele>
        <time>2022-07-31T08:26:07Z</time>
      </trkpt>
      <trkpt lat="46.56705" lon="6.07979">
        <ele>1105.17</ele>
        <time>2022-07-31T08:26:08Z</time>
      </trkpt>
      <trkpt lat="46.56704" lon="6.07979">
        <ele>1105.65</ele>
        <time>2022-07-31T08:26:09Z</time>
      </trkpt>
      <trkpt lat="46.56702" lon="6.07978">
        <ele>1105.17</ele>
        <time>2022-07-31T08:26:10Z</time>
      </trkpt>
      <trkpt lat="46.56701" lon="6.07976">
        <ele>1105.17</ele>
        <time>2022-07-31T08:26:11Z</time>
      </trkpt>
      <trkpt lat="46.56699" lon="6.07974">
        <ele>1105.65</ele>
        <time>2022-07-31T08:26:12Z</time>
      </trkpt>
      <trkpt lat="46.56674" lon="6.07977">
        <ele>1106.13</ele>
        <time>2022-07-31T08:26:23Z</time>
      </trkpt>
      <trkpt lat="46.56645" lon="6.08003">
        <ele>1104.69</ele>
        <time>2022-07-31T08:26:31Z</time>
      </trkpt>
      <trkpt lat="46.5664" lon="6.08004">
        <ele>1104.69</ele>
        <time>2022-07-31T08:26:32Z</time>
      </trkpt>
      <trkpt lat="46.56635" lon="6.08004">
        <ele>1105.17</ele>
        <time>2022-07-31T08:26:33Z</time>
      </trkpt>
      <trkpt lat="46.5663" lon="6.08004">
        <ele>1104.69</ele>
        <time>2022-07-31T08:26:34Z</time>
      </trkpt>
      <trkpt lat="46.56625" lon="6.08001">
        <ele>1105.17</ele>
        <time>2022-07-31T08:26:35Z</time>
      </trkpt>
      <trkpt lat="46.56621" lon="6.07996">
        <ele>1104.69</ele>
        <time>2022-07-31T08:26:36Z</time>
      </trkpt>
      <trkpt lat="46.56617" lon="6.0799">
        <ele>1104.69</ele>
        <time>2022-07-31T08:26:37Z</time>
      </trkpt>
      <trkpt lat="46.56613" lon="6.07982">
        <ele>1105.17</ele>
        <time>2022-07-31T08:26:38Z</time>
      </trkpt>
      <trkpt lat="46.56609" lon="6.07973">
        <ele>1102.77</ele>
        <time>2022-07-31T08:26:39Z</time>
      </trkpt>
      <trkpt lat="46.56606" lon="6.07964">
        <ele>1102.29</ele>
        <time>2022-07-31T08:26:40Z</time>
      </trkpt>
      <trkpt lat="46.56588" lon="6.07924">
        <ele>1099.89</ele>
        <time>2022-07-31T08:26:44Z</time>
      </trkpt>
      <trkpt lat="46.56556" lon="6.07865">
        <ele>1096.52</ele>
        <time>2022-07-31T08:26:50Z</time>
      </trkpt>
      <trkpt lat="46.56549" lon="6.07855">
        <ele>1096.52</ele>
        <time>2022-07-31T08:26:51Z</time>
      </trkpt>
      <trkpt lat="46.5654" lon="6.07848">
        <ele>1093.64</ele>
        <time>2022-07-31T08:26:52Z</time>
      </trkpt>
      <trkpt lat="46.5653" lon="6.07843">
        <ele>1093.64</ele>
        <time>2022-07-31T08:26:53Z</time>
      </trkpt>
      <trkpt lat="46.56519" lon="6.07842">
        <ele>1092.2</ele>
        <time>2022-07-31T08:26:54Z</time>
      </trkpt>
      <trkpt lat="46.56508" lon="6.07844">
        <ele>1091.23</ele>
        <time>2022-07-31T08:26:55Z</time>
      </trkpt>
      <trkpt lat="46.56498" lon="6.07847">
        <ele>1090.75</ele>
        <time>2022-07-31T08:26:56Z</time>
      </trkpt>
      <trkpt lat="46.56488" lon="6.07852">
        <ele>1089.79</ele>
        <time>2022-07-31T08:26:57Z</time>
      </trkpt>
      <trkpt lat="46.56457" lon="6.07865">
        <ele>1089.79</ele>
        <time>2022-07-31T08:27:00Z</time>
      </trkpt>
      <trkpt lat="46.56447" lon="6.07867">
        <ele>1089.31</ele>
        <time>2022-07-31T08:27:01Z</time>
      </trkpt>
      <trkpt lat="46.56437" lon="6.07867">
        <ele>1088.83</ele>
        <time>2022-07-31T08:27:02Z</time>
      </trkpt>
      <trkpt lat="46.56427" lon="6.07865">
        <ele>1088.35</ele>
        <time>2022-07-31T08:27:03Z</time>
      </trkpt>
      <trkpt lat="46.56417" lon="6.07862">
        <ele>1087.87</ele>
        <time>2022-07-31T08:27:04Z</time>
      </trkpt>
      <trkpt lat="46.56408" lon="6.07858">
        <ele>1087.39</ele>
        <time>2022-07-31T08:27:05Z</time>
      </trkpt>
      <trkpt lat="46.56353" lon="6.07824">
        <ele>1088.35</ele>
        <time>2022-07-31T08:27:14Z</time>
      </trkpt>
      <trkpt lat="46.56326" lon="6.07778">
        <ele>1091.23</ele>
        <time>2022-07-31T08:27:26Z</time>
      </trkpt>
      <trkpt lat="46.5631" lon="6.07712">
        <ele>1092.68</ele>
        <time>2022-07-31T08:27:42Z</time>
      </trkpt>
      <trkpt lat="46.56304" lon="6.0764">
        <ele>1092.2</ele>
        <time>2022-07-31T08:27:57Z</time>
      </trkpt>
      <trkpt lat="46.56311" lon="6.07615">
        <ele>1091.71</ele>
        <time>2022-07-31T08:28:01Z</time>
      </trkpt>
      <trkpt lat="46.56345" lon="6.0755">
        <ele>1090.27</ele>
        <time>2022-07-31T08:28:11Z</time>
      </trkpt>
      <trkpt lat="46.56347" lon="6.07543">
        <ele>1090.27</ele>
        <time>2022-07-31T08:28:12Z</time>
      </trkpt>
      <trkpt lat="46.56349" lon="6.07535">
        <ele>1089.79</ele>
        <time>2022-07-31T08:28:13Z</time>
      </trkpt>
      <trkpt lat="46.56349" lon="6.07526">
        <ele>1090.27</ele>
        <time>2022-07-31T08:28:14Z</time>
      </trkpt>
      <trkpt lat="46.56348" lon="6.07517">
        <ele>1088.83</ele>
        <time>2022-07-31T08:28:15Z</time>
      </trkpt>
      <trkpt lat="46.56345" lon="6.07509">
        <ele>1088.83</ele>
        <time>2022-07-31T08:28:16Z</time>
      </trkpt>
      <trkpt lat="46.5634" lon="6.07501">
        <ele>1087.87</ele>
        <time>2022-07-31T08:28:17Z</time>
      </trkpt>
      <trkpt lat="46.56333" lon="6.07495">
        <ele>1087.87</ele>
        <time>2022-07-31T08:28:18Z</time>
      </trkpt>
      <trkpt lat="46.56326" lon="6.07491">
        <ele>1087.39</ele>
        <time>2022-07-31T08:28:19Z</time>
      </trkpt>
      <trkpt lat="46.56317" lon="6.07488">
        <ele>1085.95</ele>
        <time>2022-07-31T08:28:20Z</time>
      </trkpt>
      <trkpt lat="46.56308" lon="6.07485">
        <ele>1085.95</ele>
        <time>2022-07-31T08:28:21Z</time>
      </trkpt>
      <trkpt lat="46.56271" lon="6.0746">
        <ele>1084.02</ele>
        <time>2022-07-31T08:28:25Z</time>
      </trkpt>
      <trkpt lat="46.56243" lon="6.07436">
        <ele>1081.14</ele>
        <time>2022-07-31T08:28:28Z</time>
      </trkpt>
      <trkpt lat="46.56215" lon="6.07409">
        <ele>1077.78</ele>
        <time>2022-07-31T08:28:31Z</time>
      </trkpt>
      <trkpt lat="46.56205" lon="6.07399">
        <ele>1077.29</ele>
        <time>2022-07-31T08:28:32Z</time>
      </trkpt>
      <trkpt lat="46.56195" lon="6.07391">
        <ele>1076.81</ele>
        <time>2022-07-31T08:28:33Z</time>
      </trkpt>
      <trkpt lat="46.56185" lon="6.07384">
        <ele>1076.33</ele>
        <time>2022-07-31T08:28:34Z</time>
      </trkpt>
      <trkpt lat="46.56173" lon="6.0738">
        <ele>1075.37</ele>
        <time>2022-07-31T08:28:35Z</time>
      </trkpt>
      <trkpt lat="46.56163" lon="6.0738">
        <ele>1073.45</ele>
        <time>2022-07-31T08:28:36Z</time>
      </trkpt>
      <trkpt lat="46.56153" lon="6.07385">
        <ele>1072.01</ele>
        <time>2022-07-31T08:28:37Z</time>
      </trkpt>
      <trkpt lat="46.56146" lon="6.07392">
        <ele>1072.01</ele>
        <time>2022-07-31T08:28:38Z</time>
      </trkpt>
      <trkpt lat="46.56138" lon="6.074">
        <ele>1071.05</ele>
        <time>2022-07-31T08:28:39Z</time>
      </trkpt>
      <trkpt lat="46.56122" lon="6.07416">
        <ele>1069.6</ele>
        <time>2022-07-31T08:28:41Z</time>
      </trkpt>
      <trkpt lat="46.56112" lon="6.07422">
        <ele>1069.12</ele>
        <time>2022-07-31T08:28:42Z</time>
      </trkpt>
      <trkpt lat="46.56102" lon="6.07427">
        <ele>1068.16</ele>
        <time>2022-07-31T08:28:43Z</time>
      </trkpt>
      <trkpt lat="46.56092" lon="6.07431">
        <ele>1067.2</ele>
        <time>2022-07-31T08:28:44Z</time>
      </trkpt>
      <trkpt lat="46.5608" lon="6.07432">
        <ele>1066.24</ele>
        <time>2022-07-31T08:28:45Z</time>
      </trkpt>
      <trkpt lat="46.56069" lon="6.07431">
        <ele>1065.76</ele>
        <time>2022-07-31T08:28:46Z</time>
      </trkpt>
      <trkpt lat="46.56057" lon="6.07429">
        <ele>1064.32</ele>
        <time>2022-07-31T08:28:47Z</time>
      </trkpt>
      <trkpt lat="46.56046" lon="6.07424">
        <ele>1063.36</ele>
        <time>2022-07-31T08:28:48Z</time>
      </trkpt>
      <trkpt lat="46.56035" lon="6.07418">
        <ele>1063.36</ele>
        <time>2022-07-31T08:28:49Z</time>
      </trkpt>
      <trkpt lat="46.56025" lon="6.0741">
        <ele>1061.91</ele>
        <time>2022-07-31T08:28:50Z</time>
      </trkpt>
      <trkpt lat="46.56016" lon="6.07401">
        <ele>1061.91</ele>
        <time>2022-07-31T08:28:51Z</time>
      </trkpt>
      <trkpt lat="46.55997" lon="6.07381">
        <ele>1059.99</ele>
        <time>2022-07-31T08:28:53Z</time>
      </trkpt>
      <trkpt lat="46.55979" lon="6.07362">
        <ele>1059.03</ele>
        <time>2022-07-31T08:28:55Z</time>
      </trkpt>
      <trkpt lat="46.55972" lon="6.07351">
        <ele>1057.59</ele>
        <time>2022-07-31T08:28:56Z</time>
      </trkpt>
      <trkpt lat="46.55966" lon="6.07339">
        <ele>1057.11</ele>
        <time>2022-07-31T08:28:57Z</time>
      </trkpt>
      <trkpt lat="46.55963" lon="6.07326">
        <ele>1057.11</ele>
        <time>2022-07-31T08:28:58Z</time>
      </trkpt>
      <trkpt lat="46.55961" lon="6.07311">
        <ele>1057.11</ele>
        <time>2022-07-31T08:28:59Z</time>
      </trkpt>
      <trkpt lat="46.55962" lon="6.07298">
        <ele>1056.63</ele>
        <time>2022-07-31T08:29:00Z</time>
      </trkpt>
      <trkpt lat="46.55964" lon="6.07284">
        <ele>1055.67</ele>
        <time>2022-07-31T08:29:01Z</time>
      </trkpt>
      <trkpt lat="46.55965" lon="6.07272">
        <ele>1055.18</ele>
        <time>2022-07-31T08:29:02Z</time>
      </trkpt>
      <trkpt lat="46.55965" lon="6.0726">
        <ele>1056.15</ele>
        <time>2022-07-31T08:29:03Z</time>
      </trkpt>
      <trkpt lat="46.55964" lon="6.07249">
        <ele>1055.67</ele>
        <time>2022-07-31T08:29:04Z</time>
      </trkpt>
      <trkpt lat="46.55962" lon="6.07239">
        <ele>1055.18</ele>
        <time>2022-07-31T08:29:05Z</time>
      </trkpt>
      <trkpt lat="46.55958" lon="6.0723">
        <ele>1056.15</ele>
        <time>2022-07-31T08:29:06Z</time>
      </trkpt>
      <trkpt lat="46.55955" lon="6.07222">
        <ele>1055.67</ele>
        <time>2022-07-31T08:29:07Z</time>
      </trkpt>
      <trkpt lat="46.5595" lon="6.07214">
        <ele>1055.67</ele>
        <time>2022-07-31T08:29:08Z</time>
      </trkpt>
      <trkpt lat="46.55895" lon="6.07123">
        <ele>1055.18</ele>
        <time>2022-07-31T08:29:21Z</time>
      </trkpt>
      <trkpt lat="46.55892" lon="6.07118">
        <ele>1054.7</ele>
        <time>2022-07-31T08:29:22Z</time>
      </trkpt>
      <trkpt lat="46.55888" lon="6.07114">
        <ele>1054.7</ele>
        <time>2022-07-31T08:29:23Z</time>
      </trkpt>
      <trkpt lat="46.55884" lon="6.0711">
        <ele>1055.18</ele>
        <time>2022-07-31T08:29:24Z</time>
      </trkpt>
      <trkpt lat="46.55881" lon="6.07106">
        <ele>1054.7</ele>
        <time>2022-07-31T08:29:25Z</time>
      </trkpt>
      <trkpt lat="46.55868" lon="6.07091">
        <ele>1053.26</ele>
        <time>2022-07-31T08:29:29Z</time>
      </trkpt>
      <trkpt lat="46.55864" lon="6.07088">
        <ele>1053.74</ele>
        <time>2022-07-31T08:29:30Z</time>
      </trkpt>
      <trkpt lat="46.55857" lon="6.07079">
        <ele>1054.22</ele>
        <time>2022-07-31T08:29:32Z</time>
      </trkpt>
      <trkpt lat="46.5581" lon="6.07025">
        <ele>1052.78</ele>
        <time>2022-07-31T08:29:47Z</time>
      </trkpt>
      <trkpt lat="46.55794" lon="6.07001">
        <ele>1052.3</ele>
        <time>2022-07-31T08:29:52Z</time>
      </trkpt>
      <trkpt lat="46.55792" lon="6.06994">
        <ele>1051.82</ele>
        <time>2022-07-31T08:29:53Z</time>
      </trkpt>
      <trkpt lat="46.55789" lon="6.06986">
        <ele>1051.34</ele>
        <time>2022-07-31T08:29:54Z</time>
      </trkpt>
      <trkpt lat="46.55788" lon="6.06977">
        <ele>1052.3</ele>
        <time>2022-07-31T08:29:55Z</time>
      </trkpt>
      <trkpt lat="46.55788" lon="6.06967">
        <ele>1052.3</ele>
        <time>2022-07-31T08:29:56Z</time>
      </trkpt>
      <trkpt lat="46.55789" lon="6.06958">
        <ele>1050.86</ele>
        <time>2022-07-31T08:29:57Z</time>
      </trkpt>
      <trkpt lat="46.5579" lon="6.06949">
        <ele>1050.38</ele>
        <time>2022-07-31T08:29:58Z</time>
      </trkpt>
      <trkpt lat="46.55792" lon="6.06939">
        <ele>1050.86</ele>
        <time>2022-07-31T08:29:59Z</time>
      </trkpt>
      <trkpt lat="46.55814" lon="6.06846">
        <ele>1048.45</ele>
        <time>2022-07-31T08:30:11Z</time>
      </trkpt>
      <trkpt lat="46.55831" lon="6.0677">
        <ele>1048.45</ele>
        <time>2022-07-31T08:30:27Z</time>
      </trkpt>
      <trkpt lat="46.55847" lon="6.06709">
        <ele>1047.01</ele>
        <time>2022-07-31T08:30:42Z</time>
      </trkpt>
      <trkpt lat="46.55853" lon="6.06683">
        <ele>1046.05</ele>
        <time>2022-07-31T08:30:46Z</time>
      </trkpt>
      <trkpt lat="46.55853" lon="6.06676">
        <ele>1046.05</ele>
        <time>2022-07-31T08:30:47Z</time>
      </trkpt>
      <trkpt lat="46.55853" lon="6.06668">
        <ele>1045.57</ele>
        <time>2022-07-31T08:30:48Z</time>
      </trkpt>
      <trkpt lat="46.55852" lon="6.0666">
        <ele>1045.57</ele>
        <time>2022-07-31T08:30:49Z</time>
      </trkpt>
      <trkpt lat="46.55851" lon="6.06653">
        <ele>1045.57</ele>
        <time>2022-07-31T08:30:50Z</time>
      </trkpt>
      <trkpt lat="46.55848" lon="6.06645">
        <ele>1045.09</ele>
        <time>2022-07-31T08:30:51Z</time>
      </trkpt>
      <trkpt lat="46.55845" lon="6.06638">
        <ele>1044.13</ele>
        <time>2022-07-31T08:30:52Z</time>
      </trkpt>
      <trkpt lat="46.55813" lon="6.06559">
        <ele>1040.76</ele>
        <time>2022-07-31T08:31:00Z</time>
      </trkpt>
      <trkpt lat="46.55809" lon="6.06547">
        <ele>1040.76</ele>
        <time>2022-07-31T08:31:01Z</time>
      </trkpt>
      <trkpt lat="46.55787" lon="6.06499">
        <ele>1037.88</ele>
        <time>2022-07-31T08:31:05Z</time>
      </trkpt>
      <trkpt lat="46.55781" lon="6.06488">
        <ele>1037.88</ele>
        <time>2022-07-31T08:31:06Z</time>
      </trkpt>
      <trkpt lat="46.55774" lon="6.0648">
        <ele>1037.88</ele>
        <time>2022-07-31T08:31:07Z</time>
      </trkpt>
      <trkpt lat="46.55767" lon="6.06474">
        <ele>1036.92</ele>
        <time>2022-07-31T08:31:08Z</time>
      </trkpt>
      <trkpt lat="46.55759" lon="6.0647">
        <ele>1037.4</ele>
        <time>2022-07-31T08:31:09Z</time>
      </trkpt>
      <trkpt lat="46.55751" lon="6.06469">
        <ele>1037.4</ele>
        <time>2022-07-31T08:31:10Z</time>
      </trkpt>
      <trkpt lat="46.55743" lon="6.0647">
        <ele>1036.92</ele>
        <time>2022-07-31T08:31:11Z</time>
      </trkpt>
      <trkpt lat="46.55735" lon="6.06471">
        <ele>1036.92</ele>
        <time>2022-07-31T08:31:12Z</time>
      </trkpt>
      <trkpt lat="46.55728" lon="6.06474">
        <ele>1036.92</ele>
        <time>2022-07-31T08:31:13Z</time>
      </trkpt>
      <trkpt lat="46.55722" lon="6.06479">
        <ele>1036.44</ele>
        <time>2022-07-31T08:31:14Z</time>
      </trkpt>
      <trkpt lat="46.55716" lon="6.06486">
        <ele>1036.44</ele>
        <time>2022-07-31T08:31:15Z</time>
      </trkpt>
      <trkpt lat="46.5571" lon="6.06492">
        <ele>1035.48</ele>
        <time>2022-07-31T08:31:16Z</time>
      </trkpt>
      <trkpt lat="46.55657" lon="6.06555">
        <ele>1034.04</ele>
        <time>2022-07-31T08:31:26Z</time>
      </trkpt>
      <trkpt lat="46.55652" lon="6.0656">
        <ele>1034.04</ele>
        <time>2022-07-31T08:31:27Z</time>
      </trkpt>
      <trkpt lat="46.55646" lon="6.06564">
        <ele>1033.55</ele>
        <time>2022-07-31T08:31:28Z</time>
      </trkpt>
      <trkpt lat="46.55639" lon="6.06567">
        <ele>1033.07</ele>
        <time>2022-07-31T08:31:29Z</time>
      </trkpt>
      <trkpt lat="46.55632" lon="6.0657">
        <ele>1033.07</ele>
        <time>2022-07-31T08:31:30Z</time>
      </trkpt>
      <trkpt lat="46.55625" lon="6.06571">
        <ele>1032.59</ele>
        <time>2022-07-31T08:31:31Z</time>
      </trkpt>
      <trkpt lat="46.55618" lon="6.0657">
        <ele>1033.07</ele>
        <time>2022-07-31T08:31:32Z</time>
      </trkpt>
      <trkpt lat="46.55611" lon="6.06569">
        <ele>1032.11</ele>
        <time>2022-07-31T08:31:33Z</time>
      </trkpt>
      <trkpt lat="46.55604" lon="6.06567">
        <ele>1032.59</ele>
        <time>2022-07-31T08:31:34Z</time>
      </trkpt>
      <trkpt lat="46.55597" lon="6.06564">
        <ele>1032.11</ele>
        <time>2022-07-31T08:31:35Z</time>
      </trkpt>
      <trkpt lat="46.55589" lon="6.06561">
        <ele>1031.15</ele>
        <time>2022-07-31T08:31:36Z</time>
      </trkpt>
      <trkpt lat="46.55582" lon="6.06557">
        <ele>1031.15</ele>
        <time>2022-07-31T08:31:37Z</time>
      </trkpt>
      <trkpt lat="46.55546" lon="6.06531">
        <ele>1028.75</ele>
        <time>2022-07-31T08:31:42Z</time>
      </trkpt>
      <trkpt lat="46.55489" lon="6.06511">
        <ele>1026.34</ele>
        <time>2022-07-31T08:31:49Z</time>
      </trkpt>
      <trkpt lat="46.5548" lon="6.06508">
        <ele>1025.86</ele>
        <time>2022-07-31T08:31:50Z</time>
      </trkpt>
      <trkpt lat="46.55471" lon="6.06503">
        <ele>1025.86</ele>
        <time>2022-07-31T08:31:51Z</time>
      </trkpt>
      <trkpt lat="46.55463" lon="6.06497">
        <ele>1025.38</ele>
        <time>2022-07-31T08:31:52Z</time>
      </trkpt>
      <trkpt lat="46.55455" lon="6.0649">
        <ele>1023.94</ele>
        <time>2022-07-31T08:31:53Z</time>
      </trkpt>
      <trkpt lat="46.55448" lon="6.0648">
        <ele>1023.94</ele>
        <time>2022-07-31T08:31:54Z</time>
      </trkpt>
      <trkpt lat="46.55442" lon="6.06469">
        <ele>1023.46</ele>
        <time>2022-07-31T08:31:55Z</time>
      </trkpt>
      <trkpt lat="46.55436" lon="6.06456">
        <ele>1023.46</ele>
        <time>2022-07-31T08:31:56Z</time>
      </trkpt>
      <trkpt lat="46.55432" lon="6.06442">
        <ele>1022.02</ele>
        <time>2022-07-31T08:31:57Z</time>
      </trkpt>
      <trkpt lat="46.5543" lon="6.06428">
        <ele>1022.98</ele>
        <time>2022-07-31T08:31:58Z</time>
      </trkpt>
      <trkpt lat="46.55428" lon="6.06413">
        <ele>1022.02</ele>
        <time>2022-07-31T08:31:59Z</time>
      </trkpt>
      <trkpt lat="46.55427" lon="6.06398">
        <ele>1022.5</ele>
        <time>2022-07-31T08:32:00Z</time>
      </trkpt>
      <trkpt lat="46.55427" lon="6.06383">
        <ele>1022.02</ele>
        <time>2022-07-31T08:32:01Z</time>
      </trkpt>
      <trkpt lat="46.55428" lon="6.06368">
        <ele>1021.06</ele>
        <time>2022-07-31T08:32:02Z</time>
      </trkpt>
      <trkpt lat="46.55431" lon="6.06353">
        <ele>1020.1</ele>
        <time>2022-07-31T08:32:03Z</time>
      </trkpt>
      <trkpt lat="46.55434" lon="6.06339">
        <ele>1019.62</ele>
        <time>2022-07-31T08:32:04Z</time>
      </trkpt>
      <trkpt lat="46.55439" lon="6.06326">
        <ele>1018.65</ele>
        <time>2022-07-31T08:32:05Z</time>
      </trkpt>
      <trkpt lat="46.55445" lon="6.06313">
        <ele>1017.69</ele>
        <time>2022-07-31T08:32:06Z</time>
      </trkpt>
      <trkpt lat="46.55451" lon="6.06302">
        <ele>1016.73</ele>
        <time>2022-07-31T08:32:07Z</time>
      </trkpt>
      <trkpt lat="46.55459" lon="6.06292">
        <ele>1016.73</ele>
        <time>2022-07-31T08:32:08Z</time>
      </trkpt>
      <trkpt lat="46.55467" lon="6.06282">
        <ele>1016.25</ele>
        <time>2022-07-31T08:32:09Z</time>
      </trkpt>
      <trkpt lat="46.55475" lon="6.06273">
        <ele>1014.81</ele>
        <time>2022-07-31T08:32:10Z</time>
      </trkpt>
      <trkpt lat="46.55511" lon="6.06223">
        <ele>1010.48</ele>
        <time>2022-07-31T08:32:15Z</time>
      </trkpt>
      <trkpt lat="46.55518" lon="6.06212">
        <ele>1010.96</ele>
        <time>2022-07-31T08:32:16Z</time>
      </trkpt>
      <trkpt lat="46.55538" lon="6.06179">
        <ele>1007.6</ele>
        <time>2022-07-31T08:32:19Z</time>
      </trkpt>
      <trkpt lat="46.55543" lon="6.06167">
        <ele>1007.6</ele>
        <time>2022-07-31T08:32:20Z</time>
      </trkpt>
      <trkpt lat="46.55548" lon="6.06153">
        <ele>1008.08</ele>
        <time>2022-07-31T08:32:21Z</time>
      </trkpt>
      <trkpt lat="46.55551" lon="6.06139">
        <ele>1007.12</ele>
        <time>2022-07-31T08:32:22Z</time>
      </trkpt>
      <trkpt lat="46.55552" lon="6.06125">
        <ele>1005.2</ele>
        <time>2022-07-31T08:32:23Z</time>
      </trkpt>
      <trkpt lat="46.55552" lon="6.06111">
        <ele>1005.2</ele>
        <time>2022-07-31T08:32:24Z</time>
      </trkpt>
      <trkpt lat="46.5555" lon="6.06097">
        <ele>1005.2</ele>
        <time>2022-07-31T08:32:25Z</time>
      </trkpt>
      <trkpt lat="46.55547" lon="6.06083">
        <ele>1004.23</ele>
        <time>2022-07-31T08:32:26Z</time>
      </trkpt>
      <trkpt lat="46.55543" lon="6.0607">
        <ele>1003.75</ele>
        <time>2022-07-31T08:32:27Z</time>
      </trkpt>
      <trkpt lat="46.55497" lon="6.05979">
        <ele>1000.39</ele>
        <time>2022-07-31T08:32:35Z</time>
      </trkpt>
      <trkpt lat="46.55487" lon="6.0596">
        <ele>999.91</ele>
        <time>2022-07-31T08:32:37Z</time>
      </trkpt>
      <trkpt lat="46.5545" lon="6.05862">
        <ele>998.47</ele>
        <time>2022-07-31T08:32:47Z</time>
      </trkpt>
      <trkpt lat="46.55448" lon="6.0585">
        <ele>998.47</ele>
        <time>2022-07-31T08:32:48Z</time>
      </trkpt>
      <trkpt lat="46.55448" lon="6.05838">
        <ele>997.02</ele>
        <time>2022-07-31T08:32:49Z</time>
      </trkpt>
      <trkpt lat="46.55447" lon="6.05826">
        <ele>997.02</ele>
        <time>2022-07-31T08:32:50Z</time>
      </trkpt>
      <trkpt lat="46.55448" lon="6.05813">
        <ele>996.54</ele>
        <time>2022-07-31T08:32:51Z</time>
      </trkpt>
      <trkpt lat="46.55449" lon="6.058">
        <ele>995.58</ele>
        <time>2022-07-31T08:32:52Z</time>
      </trkpt>
      <trkpt lat="46.55451" lon="6.05786">
        <ele>995.58</ele>
        <time>2022-07-31T08:32:53Z</time>
      </trkpt>
      <trkpt lat="46.5546" lon="6.05731">
        <ele>992.7</ele>
        <time>2022-07-31T08:32:57Z</time>
      </trkpt>
      <trkpt lat="46.55461" lon="6.05717">
        <ele>991.74</ele>
        <time>2022-07-31T08:32:58Z</time>
      </trkpt>
      <trkpt lat="46.5546" lon="6.05703">
        <ele>991.26</ele>
        <time>2022-07-31T08:32:59Z</time>
      </trkpt>
      <trkpt lat="46.55456" lon="6.0569">
        <ele>990.3</ele>
        <time>2022-07-31T08:33:00Z</time>
      </trkpt>
      <trkpt lat="46.55451" lon="6.05678">
        <ele>989.33</ele>
        <time>2022-07-31T08:33:01Z</time>
      </trkpt>
      <trkpt lat="46.55443" lon="6.05669">
        <ele>989.33</ele>
        <time>2022-07-31T08:33:02Z</time>
      </trkpt>
      <trkpt lat="46.55435" lon="6.05661">
        <ele>989.33</ele>
        <time>2022-07-31T08:33:03Z</time>
      </trkpt>
      <trkpt lat="46.55426" lon="6.05656">
        <ele>987.89</ele>
        <time>2022-07-31T08:33:04Z</time>
      </trkpt>
      <trkpt lat="46.55417" lon="6.05654">
        <ele>987.89</ele>
        <time>2022-07-31T08:33:05Z</time>
      </trkpt>
      <trkpt lat="46.55407" lon="6.05654">
        <ele>986.93</ele>
        <time>2022-07-31T08:33:06Z</time>
      </trkpt>
      <trkpt lat="46.55398" lon="6.05655">
        <ele>987.41</ele>
        <time>2022-07-31T08:33:07Z</time>
      </trkpt>
      <trkpt lat="46.55378" lon="6.05654">
        <ele>985.49</ele>
        <time>2022-07-31T08:33:09Z</time>
      </trkpt>
      <trkpt lat="46.55368" lon="6.0565">
        <ele>985.49</ele>
        <time>2022-07-31T08:33:10Z</time>
      </trkpt>
      <trkpt lat="46.55358" lon="6.05644">
        <ele>985.01</ele>
        <time>2022-07-31T08:33:11Z</time>
      </trkpt>
      <trkpt lat="46.5535" lon="6.05637">
        <ele>984.05</ele>
        <time>2022-07-31T08:33:12Z</time>
      </trkpt>
      <trkpt lat="46.55342" lon="6.05629">
        <ele>983.09</ele>
        <time>2022-07-31T08:33:13Z</time>
      </trkpt>
      <trkpt lat="46.55334" lon="6.05618">
        <ele>983.09</ele>
        <time>2022-07-31T08:33:14Z</time>
      </trkpt>
      <trkpt lat="46.55328" lon="6.05607">
        <ele>982.6</ele>
        <time>2022-07-31T08:33:15Z</time>
      </trkpt>
      <trkpt lat="46.55322" lon="6.05595">
        <ele>982.6</ele>
        <time>2022-07-31T08:33:16Z</time>
      </trkpt>
      <trkpt lat="46.55317" lon="6.05582">
        <ele>982.6</ele>
        <time>2022-07-31T08:33:17Z</time>
      </trkpt>
      <trkpt lat="46.55312" lon="6.05569">
        <ele>982.12</ele>
        <time>2022-07-31T08:33:18Z</time>
      </trkpt>
      <trkpt lat="46.55296" lon="6.05516">
        <ele>981.16</ele>
        <time>2022-07-31T08:33:22Z</time>
      </trkpt>
      <trkpt lat="46.55294" lon="6.05502">
        <ele>980.2</ele>
        <time>2022-07-31T08:33:23Z</time>
      </trkpt>
      <trkpt lat="46.55281" lon="6.0536">
        <ele>977.32</ele>
        <time>2022-07-31T08:33:33Z</time>
      </trkpt>
      <trkpt lat="46.55279" lon="6.05348">
        <ele>977.32</ele>
        <time>2022-07-31T08:33:34Z</time>
      </trkpt>
      <trkpt lat="46.55265" lon="6.05227">
        <ele>976.36</ele>
        <time>2022-07-31T08:33:46Z</time>
      </trkpt>
      <trkpt lat="46.55263" lon="6.05201">
        <ele>975.88</ele>
        <time>2022-07-31T08:33:50Z</time>
      </trkpt>
      <trkpt lat="46.55259" lon="6.05129">
        <ele>977.8</ele>
        <time>2022-07-31T08:34:06Z</time>
      </trkpt>
      <trkpt lat="46.55241" lon="6.05079">
        <ele>978.76</ele>
        <time>2022-07-31T08:34:22Z</time>
      </trkpt>
      <trkpt lat="46.55211" lon="6.05034">
        <ele>980.2</ele>
        <time>2022-07-31T08:34:40Z</time>
      </trkpt>
      <trkpt lat="46.55187" lon="6.04981">
        <ele>981.16</ele>
        <time>2022-07-31T08:34:57Z</time>
      </trkpt>
      <trkpt lat="46.55156" lon="6.04925">
        <ele>980.68</ele>
        <time>2022-07-31T08:35:12Z</time>
      </trkpt>
      <trkpt lat="46.55121" lon="6.04882">
        <ele>980.68</ele>
        <time>2022-07-31T08:35:28Z</time>
      </trkpt>
      <trkpt lat="46.55082" lon="6.04833">
        <ele>981.16</ele>
        <time>2022-07-31T08:35:45Z</time>
      </trkpt>
      <trkpt lat="46.55037" lon="6.04756">
        <ele>979.72</ele>
        <time>2022-07-31T08:36:01Z</time>
      </trkpt>
      <trkpt lat="46.54974" lon="6.04689">
        <ele>977.32</ele>
        <time>2022-07-31T08:36:15Z</time>
      </trkpt>
      <trkpt lat="46.54964" lon="6.04675">
        <ele>977.32</ele>
        <time>2022-07-31T08:36:17Z</time>
      </trkpt>
      <trkpt lat="46.54959" lon="6.04666">
        <ele>976.36</ele>
        <time>2022-07-31T08:36:18Z</time>
      </trkpt>
      <trkpt lat="46.54955" lon="6.04657">
        <ele>976.36</ele>
        <time>2022-07-31T08:36:19Z</time>
      </trkpt>
      <trkpt lat="46.5495" lon="6.04646">
        <ele>975.88</ele>
        <time>2022-07-31T08:36:20Z</time>
      </trkpt>
      <trkpt lat="46.54947" lon="6.04635">
        <ele>974.91</ele>
        <time>2022-07-31T08:36:21Z</time>
      </trkpt>
      <trkpt lat="46.54943" lon="6.04623">
        <ele>974.43</ele>
        <time>2022-07-31T08:36:22Z</time>
      </trkpt>
      <trkpt lat="46.54941" lon="6.0461">
        <ele>973.47</ele>
        <time>2022-07-31T08:36:23Z</time>
      </trkpt>
      <trkpt lat="46.54939" lon="6.04596">
        <ele>973.47</ele>
        <time>2022-07-31T08:36:24Z</time>
      </trkpt>
      <trkpt lat="46.54938" lon="6.04582">
        <ele>972.03</ele>
        <time>2022-07-31T08:36:25Z</time>
      </trkpt>
      <trkpt lat="46.54938" lon="6.04567">
        <ele>971.55</ele>
        <time>2022-07-31T08:36:26Z</time>
      </trkpt>
      <trkpt lat="46.54938" lon="6.04553">
        <ele>970.59</ele>
        <time>2022-07-31T08:36:27Z</time>
      </trkpt>
      <trkpt lat="46.54939" lon="6.04522">
        <ele>969.15</ele>
        <time>2022-07-31T08:36:29Z</time>
      </trkpt>
      <trkpt lat="46.54935" lon="6.04475">
        <ele>967.7</ele>
        <time>2022-07-31T08:36:32Z</time>
      </trkpt>
      <trkpt lat="46.54932" lon="6.04459">
        <ele>966.26</ele>
        <time>2022-07-31T08:36:33Z</time>
      </trkpt>
      <trkpt lat="46.54928" lon="6.04444">
        <ele>964.82</ele>
        <time>2022-07-31T08:36:34Z</time>
      </trkpt>
      <trkpt lat="46.54922" lon="6.0443">
        <ele>965.3</ele>
        <time>2022-07-31T08:36:35Z</time>
      </trkpt>
      <trkpt lat="46.54915" lon="6.04418">
        <ele>964.82</ele>
        <time>2022-07-31T08:36:36Z</time>
      </trkpt>
      <trkpt lat="46.54907" lon="6.04405">
        <ele>963.38</ele>
        <time>2022-07-31T08:36:37Z</time>
      </trkpt>
      <trkpt lat="46.54876" lon="6.04353">
        <ele>960.98</ele>
        <time>2022-07-31T08:36:41Z</time>
      </trkpt>
      <trkpt lat="46.54868" lon="6.0434">
        <ele>960.98</ele>
        <time>2022-07-31T08:36:42Z</time>
      </trkpt>
      <trkpt lat="46.54859" lon="6.04328">
        <ele>959.05</ele>
        <time>2022-07-31T08:36:43Z</time>
      </trkpt>
      <trkpt lat="46.54849" lon="6.04317">
        <ele>958.57</ele>
        <time>2022-07-31T08:36:44Z</time>
      </trkpt>
      <trkpt lat="46.54838" lon="6.04308">
        <ele>958.09</ele>
        <time>2022-07-31T08:36:45Z</time>
      </trkpt>
      <trkpt lat="46.54827" lon="6.04299">
        <ele>956.17</ele>
        <time>2022-07-31T08:36:46Z</time>
      </trkpt>
      <trkpt lat="46.54794" lon="6.04272">
        <ele>952.32</ele>
        <time>2022-07-31T08:36:49Z</time>
      </trkpt>
      <trkpt lat="46.5476" lon="6.04243">
        <ele>949.44</ele>
        <time>2022-07-31T08:36:52Z</time>
      </trkpt>
      <trkpt lat="46.5475" lon="6.04231">
        <ele>948.96</ele>
        <time>2022-07-31T08:36:53Z</time>
      </trkpt>
      <trkpt lat="46.54711" lon="6.04173">
        <ele>945.11</ele>
        <time>2022-07-31T08:36:57Z</time>
      </trkpt>
      <trkpt lat="46.54701" lon="6.04159">
        <ele>945.11</ele>
        <time>2022-07-31T08:36:58Z</time>
      </trkpt>
      <trkpt lat="46.5469" lon="6.04147">
        <ele>943.19</ele>
        <time>2022-07-31T08:36:59Z</time>
      </trkpt>
      <trkpt lat="46.54677" lon="6.04137">
        <ele>941.27</ele>
        <time>2022-07-31T08:37:00Z</time>
      </trkpt>
      <trkpt lat="46.54665" lon="6.04128">
        <ele>941.27</ele>
        <time>2022-07-31T08:37:01Z</time>
      </trkpt>
      <trkpt lat="46.54652" lon="6.0412">
        <ele>940.31</ele>
        <time>2022-07-31T08:37:02Z</time>
      </trkpt>
      <trkpt lat="46.54639" lon="6.04113">
        <ele>940.31</ele>
        <time>2022-07-31T08:37:03Z</time>
      </trkpt>
      <trkpt lat="46.54601" lon="6.04096">
        <ele>938.86</ele>
        <time>2022-07-31T08:37:06Z</time>
      </trkpt>
      <trkpt lat="46.54579" lon="6.04081">
        <ele>938.86</ele>
        <time>2022-07-31T08:37:08Z</time>
      </trkpt>
      <trkpt lat="46.54569" lon="6.04072">
        <ele>938.38</ele>
        <time>2022-07-31T08:37:09Z</time>
      </trkpt>
      <trkpt lat="46.5456" lon="6.04062">
        <ele>937.9</ele>
        <time>2022-07-31T08:37:10Z</time>
      </trkpt>
      <trkpt lat="46.54552" lon="6.04051">
        <ele>937.42</ele>
        <time>2022-07-31T08:37:11Z</time>
      </trkpt>
      <trkpt lat="46.54502" lon="6.03987">
        <ele>933.1</ele>
        <time>2022-07-31T08:37:17Z</time>
      </trkpt>
      <trkpt lat="46.54486" lon="6.03963">
        <ele>931.65</ele>
        <time>2022-07-31T08:37:19Z</time>
      </trkpt>
      <trkpt lat="46.54448" lon="6.03902">
        <ele>928.77</ele>
        <time>2022-07-31T08:37:24Z</time>
      </trkpt>
      <trkpt lat="46.54388" lon="6.03781">
        <ele>926.85</ele>
        <time>2022-07-31T08:37:35Z</time>
      </trkpt>
      <trkpt lat="46.54355" lon="6.03723">
        <ele>928.29</ele>
        <time>2022-07-31T08:37:46Z</time>
      </trkpt>
      <trkpt lat="46.54324" lon="6.03688">
        <ele>929.73</ele>
        <time>2022-07-31T08:38:01Z</time>
      </trkpt>
      <trkpt lat="46.54278" lon="6.03648">
        <ele>929.73</ele>
        <time>2022-07-31T08:38:18Z</time>
      </trkpt>
      <trkpt lat="46.54234" lon="6.03599">
        <ele>928.77</ele>
        <time>2022-07-31T08:38:31Z</time>
      </trkpt>
      <trkpt lat="46.5423" lon="6.03594">
        <ele>927.33</ele>
        <time>2022-07-31T08:38:32Z</time>
      </trkpt>
      <trkpt lat="46.54225" lon="6.03583">
        <ele>926.37</ele>
        <time>2022-07-31T08:38:34Z</time>
      </trkpt>
      <trkpt lat="46.54206" lon="6.0355">
        <ele>924.93</ele>
        <time>2022-07-31T08:38:44Z</time>
      </trkpt>
      <trkpt lat="46.54192" lon="6.03519">
        <ele>922.52</ele>
        <time>2022-07-31T08:38:54Z</time>
      </trkpt>
      <trkpt lat="46.54192" lon="6.03517">
        <ele>922.04</ele>
        <time>2022-07-31T08:39:10Z</time>
      </trkpt>
      <trkpt lat="46.54191" lon="6.03516">
        <ele>921.56</ele>
        <time>2022-07-31T08:39:40Z</time>
      </trkpt>
      <trkpt lat="46.54191" lon="6.03515">
        <ele>922.04</ele>
        <time>2022-07-31T08:40:09Z</time>
      </trkpt>
      <trkpt lat="46.54189" lon="6.03498">
        <ele>921.08</ele>
        <time>2022-07-31T08:40:27Z</time>
      </trkpt>
      <trkpt lat="46.54188" lon="6.03487">
        <ele>921.08</ele>
        <time>2022-07-31T08:40:29Z</time>
      </trkpt>
      <trkpt lat="46.54185" lon="6.03465">
        <ele>919.64</ele>
        <time>2022-07-31T08:40:32Z</time>
      </trkpt>
      <trkpt lat="46.54178" lon="6.03438">
        <ele>917.72</ele>
        <time>2022-07-31T08:40:35Z</time>
      </trkpt>
      <trkpt lat="46.54154" lon="6.03366">
        <ele>915.31</ele>
        <time>2022-07-31T08:40:42Z</time>
      </trkpt>
      <trkpt lat="46.5413" lon="6.03289">
        <ele>913.39</ele>
        <time>2022-07-31T08:40:49Z</time>
      </trkpt>
      <trkpt lat="46.54129" lon="6.03277">
        <ele>912.91</ele>
        <time>2022-07-31T08:40:50Z</time>
      </trkpt>
      <trkpt lat="46.54129" lon="6.03263">
        <ele>912.43</ele>
        <time>2022-07-31T08:40:51Z</time>
      </trkpt>
      <trkpt lat="46.54131" lon="6.03249">
        <ele>911.95</ele>
        <time>2022-07-31T08:40:52Z</time>
      </trkpt>
      <trkpt lat="46.54134" lon="6.03236">
        <ele>911.47</ele>
        <time>2022-07-31T08:40:53Z</time>
      </trkpt>
      <trkpt lat="46.54139" lon="6.03223">
        <ele>909.54</ele>
        <time>2022-07-31T08:40:54Z</time>
      </trkpt>
      <trkpt lat="46.54145" lon="6.03211">
        <ele>909.54</ele>
        <time>2022-07-31T08:40:55Z</time>
      </trkpt>
      <trkpt lat="46.54152" lon="6.032">
        <ele>908.58</ele>
        <time>2022-07-31T08:40:56Z</time>
      </trkpt>
      <trkpt lat="46.54166" lon="6.03175">
        <ele>906.66</ele>
        <time>2022-07-31T08:40:58Z</time>
      </trkpt>
      <trkpt lat="46.54171" lon="6.03161">
        <ele>906.66</ele>
        <time>2022-07-31T08:40:59Z</time>
      </trkpt>
      <trkpt lat="46.54174" lon="6.03145">
        <ele>906.18</ele>
        <time>2022-07-31T08:41:00Z</time>
      </trkpt>
      <trkpt lat="46.54174" lon="6.03129">
        <ele>903.78</ele>
        <time>2022-07-31T08:41:01Z</time>
      </trkpt>
      <trkpt lat="46.54171" lon="6.03113">
        <ele>902.82</ele>
        <time>2022-07-31T08:41:02Z</time>
      </trkpt>
      <trkpt lat="46.54166" lon="6.03098">
        <ele>903.3</ele>
        <time>2022-07-31T08:41:03Z</time>
      </trkpt>
      <trkpt lat="46.54159" lon="6.03084">
        <ele>903.3</ele>
        <time>2022-07-31T08:41:04Z</time>
      </trkpt>
      <trkpt lat="46.54151" lon="6.03071">
        <ele>902.33</ele>
        <time>2022-07-31T08:41:05Z</time>
      </trkpt>
      <trkpt lat="46.54136" lon="6.03047">
        <ele>899.45</ele>
        <time>2022-07-31T08:41:07Z</time>
      </trkpt>
      <trkpt lat="46.54094" lon="6.02992">
        <ele>894.16</ele>
        <time>2022-07-31T08:41:12Z</time>
      </trkpt>
      <trkpt lat="46.54076" lon="6.0297">
        <ele>892.24</ele>
        <time>2022-07-31T08:41:14Z</time>
      </trkpt>
      <trkpt lat="46.54048" lon="6.02936">
        <ele>890.8</ele>
        <time>2022-07-31T08:41:17Z</time>
      </trkpt>
      <trkpt lat="46.5402" lon="6.02906">
        <ele>888.4</ele>
        <time>2022-07-31T08:41:20Z</time>
      </trkpt>
      <trkpt lat="46.53992" lon="6.02878">
        <ele>886.95</ele>
        <time>2022-07-31T08:41:23Z</time>
      </trkpt>
      <trkpt lat="46.53972" lon="6.02862">
        <ele>884.55</ele>
        <time>2022-07-31T08:41:25Z</time>
      </trkpt>
      <trkpt lat="46.53915" lon="6.02821">
        <ele>881.19</ele>
        <time>2022-07-31T08:41:31Z</time>
      </trkpt>
      <trkpt lat="46.53861" lon="6.02773">
        <ele>876.86</ele>
        <time>2022-07-31T08:41:37Z</time>
      </trkpt>
      <trkpt lat="46.53844" lon="6.02754">
        <ele>875.42</ele>
        <time>2022-07-31T08:41:39Z</time>
      </trkpt>
      <trkpt lat="46.53811" lon="6.02712">
        <ele>873.01</ele>
        <time>2022-07-31T08:41:43Z</time>
      </trkpt>
      <trkpt lat="46.53787" lon="6.02677">
        <ele>869.17</ele>
        <time>2022-07-31T08:41:46Z</time>
      </trkpt>
      <trkpt lat="46.53756" lon="6.02626">
        <ele>866.29</ele>
        <time>2022-07-31T08:41:50Z</time>
      </trkpt>
      <trkpt lat="46.5372" lon="6.02579">
        <ele>864.36</ele>
        <time>2022-07-31T08:41:54Z</time>
      </trkpt>
      <trkpt lat="46.53704" lon="6.02553">
        <ele>862.44</ele>
        <time>2022-07-31T08:41:56Z</time>
      </trkpt>
      <trkpt lat="46.53683" lon="6.02515">
        <ele>859.08</ele>
        <time>2022-07-31T08:41:59Z</time>
      </trkpt>
      <trkpt lat="46.5366" lon="6.02467">
        <ele>855.71</ele>
        <time>2022-07-31T08:42:03Z</time>
      </trkpt>
      <trkpt lat="46.53644" lon="6.02433">
        <ele>853.79</ele>
        <time>2022-07-31T08:42:06Z</time>
      </trkpt>
      <trkpt lat="46.53635" lon="6.02411">
        <ele>851.38</ele>
        <time>2022-07-31T08:42:08Z</time>
      </trkpt>
      <trkpt lat="46.53629" lon="6.02402">
        <ele>850.9</ele>
        <time>2022-07-31T08:42:09Z</time>
      </trkpt>
      <trkpt lat="46.53622" lon="6.02395">
        <ele>850.9</ele>
        <time>2022-07-31T08:42:10Z</time>
      </trkpt>
      <trkpt lat="46.53614" lon="6.02391">
        <ele>849.46</ele>
        <time>2022-07-31T08:42:11Z</time>
      </trkpt>
      <trkpt lat="46.53598" lon="6.02381">
        <ele>848.98</ele>
        <time>2022-07-31T08:42:13Z</time>
      </trkpt>
      <trkpt lat="46.5359" lon="6.02374">
        <ele>848.98</ele>
        <time>2022-07-31T08:42:14Z</time>
      </trkpt>
      <trkpt lat="46.53583" lon="6.02365">
        <ele>848.02</ele>
        <time>2022-07-31T08:42:15Z</time>
      </trkpt>
      <trkpt lat="46.53536" lon="6.0231">
        <ele>844.18</ele>
        <time>2022-07-31T08:42:21Z</time>
      </trkpt>
      <trkpt lat="46.53519" lon="6.0229">
        <ele>843.21</ele>
        <time>2022-07-31T08:42:23Z</time>
      </trkpt>
      <trkpt lat="46.53475" lon="6.02242">
        <ele>840.33</ele>
        <time>2022-07-31T08:42:28Z</time>
      </trkpt>
      <trkpt lat="46.53433" lon="6.02199">
        <ele>836.96</ele>
        <time>2022-07-31T08:42:33Z</time>
      </trkpt>
      <trkpt lat="46.53426" lon="6.02191">
        <ele>836.96</ele>
        <time>2022-07-31T08:42:34Z</time>
      </trkpt>
      <trkpt lat="46.53403" lon="6.02165">
        <ele>833.6</ele>
        <time>2022-07-31T08:42:37Z</time>
      </trkpt>
      <trkpt lat="46.5338" lon="6.0214">
        <ele>832.16</ele>
        <time>2022-07-31T08:42:40Z</time>
      </trkpt>
      <trkpt lat="46.53365" lon="6.02125">
        <ele>830.72</ele>
        <time>2022-07-31T08:42:42Z</time>
      </trkpt>
      <trkpt lat="46.53342" lon="6.02101">
        <ele>828.31</ele>
        <time>2022-07-31T08:42:45Z</time>
      </trkpt>
      <trkpt lat="46.53321" lon="6.02073">
        <ele>825.91</ele>
        <time>2022-07-31T08:42:48Z</time>
      </trkpt>
      <trkpt lat="46.53316" lon="6.02061">
        <ele>825.43</ele>
        <time>2022-07-31T08:42:49Z</time>
      </trkpt>
      <trkpt lat="46.53292" lon="6.0199">
        <ele>821.58</ele>
        <time>2022-07-31T08:42:55Z</time>
      </trkpt>
      <trkpt lat="46.5329" lon="6.01977">
        <ele>820.14</ele>
        <time>2022-07-31T08:42:56Z</time>
      </trkpt>
      <trkpt lat="46.5329" lon="6.01964">
        <ele>820.14</ele>
        <time>2022-07-31T08:42:57Z</time>
      </trkpt>
      <trkpt lat="46.5329" lon="6.01951">
        <ele>819.18</ele>
        <time>2022-07-31T08:42:58Z</time>
      </trkpt>
      <trkpt lat="46.53292" lon="6.01938">
        <ele>817.26</ele>
        <time>2022-07-31T08:42:59Z</time>
      </trkpt>
      <trkpt lat="46.53293" lon="6.01927">
        <ele>817.26</ele>
        <time>2022-07-31T08:43:00Z</time>
      </trkpt>
      <trkpt lat="46.53296" lon="6.01893">
        <ele>815.82</ele>
        <time>2022-07-31T08:43:03Z</time>
      </trkpt>
      <trkpt lat="46.53295" lon="6.01884">
        <ele>815.82</ele>
        <time>2022-07-31T08:43:04Z</time>
      </trkpt>
      <trkpt lat="46.53293" lon="6.01877">
        <ele>815.34</ele>
        <time>2022-07-31T08:43:05Z</time>
      </trkpt>
      <trkpt lat="46.53292" lon="6.01871">
        <ele>815.34</ele>
        <time>2022-07-31T08:43:06Z</time>
      </trkpt>
      <trkpt lat="46.53291" lon="6.01866">
        <ele>815.34</ele>
        <time>2022-07-31T08:43:07Z</time>
      </trkpt>
      <trkpt lat="46.53291" lon="6.01864">
        <ele>815.34</ele>
        <time>2022-07-31T08:43:08Z</time>
      </trkpt>
      <trkpt lat="46.53291" lon="6.01862">
        <ele>815.34</ele>
        <time>2022-07-31T08:43:09Z</time>
      </trkpt>
      <trkpt lat="46.5329" lon="6.0186">
        <ele>815.34</ele>
        <time>2022-07-31T08:43:22Z</time>
      </trkpt>
      <trkpt lat="46.53289" lon="6.01859">
        <ele>815.34</ele>
        <time>2022-07-31T08:43:42Z</time>
      </trkpt>
      <trkpt lat="46.5329" lon="6.01856">
        <ele>815.34</ele>
        <time>2022-07-31T08:43:47Z</time>
      </trkpt>
      <trkpt lat="46.5329" lon="6.01854">
        <ele>815.34</ele>
        <time>2022-07-31T08:43:48Z</time>
      </trkpt>
      <trkpt lat="46.53291" lon="6.01852">
        <ele>815.82</ele>
        <time>2022-07-31T08:43:49Z</time>
      </trkpt>
      <trkpt lat="46.53292" lon="6.0185">
        <ele>815.34</ele>
        <time>2022-07-31T08:43:50Z</time>
      </trkpt>
      <trkpt lat="46.53293" lon="6.01848">
        <ele>815.82</ele>
        <time>2022-07-31T08:43:51Z</time>
      </trkpt>
      <trkpt lat="46.53313" lon="6.01801">
        <ele>818.7</ele>
        <time>2022-07-31T08:44:08Z</time>
      </trkpt>
      <trkpt lat="46.53338" lon="6.01752">
        <ele>820.62</ele>
        <time>2022-07-31T08:44:28Z</time>
      </trkpt>
      <trkpt lat="46.53361" lon="6.01705">
        <ele>823.03</ele>
        <time>2022-07-31T08:44:46Z</time>
      </trkpt>
      <trkpt lat="46.53382" lon="6.01663">
        <ele>824.95</ele>
        <time>2022-07-31T08:45:02Z</time>
      </trkpt>
      <trkpt lat="46.53409" lon="6.01622">
        <ele>827.35</ele>
        <time>2022-07-31T08:45:21Z</time>
      </trkpt>
      <trkpt lat="46.5344" lon="6.01598">
        <ele>830.24</ele>
        <time>2022-07-31T08:45:41Z</time>
      </trkpt>
      <trkpt lat="46.5345" lon="6.01596">
        <ele>831.2</ele>
        <time>2022-07-31T08:45:46Z</time>
      </trkpt>
      <trkpt lat="46.53484" lon="6.01593">
        <ele>832.16</ele>
        <time>2022-07-31T08:46:04Z</time>
      </trkpt>
      <trkpt lat="46.53523" lon="6.0159">
        <ele>834.56</ele>
        <time>2022-07-31T08:46:23Z</time>
      </trkpt>
      <trkpt lat="46.53563" lon="6.01587">
        <ele>837.93</ele>
        <time>2022-07-31T08:46:44Z</time>
      </trkpt>
      <trkpt lat="46.53602" lon="6.0159">
        <ele>840.33</ele>
        <time>2022-07-31T08:47:03Z</time>
      </trkpt>
      <trkpt lat="46.53603" lon="6.0159">
        <ele>839.85</ele>
        <time>2022-07-31T08:47:04Z</time>
      </trkpt>
      <trkpt lat="46.53605" lon="6.0159">
        <ele>839.85</ele>
        <time>2022-07-31T08:47:05Z</time>
      </trkpt>
      <trkpt lat="46.53606" lon="6.01589">
        <ele>839.85</ele>
        <time>2022-07-31T08:47:06Z</time>
      </trkpt>
      <trkpt lat="46.53607" lon="6.0159">
        <ele>840.33</ele>
        <time>2022-07-31T08:47:07Z</time>
      </trkpt>
      <trkpt lat="46.53609" lon="6.01591">
        <ele>840.33</ele>
        <time>2022-07-31T08:47:08Z</time>
      </trkpt>
      <trkpt lat="46.53612" lon="6.01591">
        <ele>840.81</ele>
        <time>2022-07-31T08:47:10Z</time>
      </trkpt>
      <trkpt lat="46.53633" lon="6.01591">
        <ele>842.73</ele>
        <time>2022-07-31T08:47:26Z</time>
      </trkpt>
      <trkpt lat="46.53658" lon="6.01592">
        <ele>844.66</ele>
        <time>2022-07-31T08:47:40Z</time>
      </trkpt>
      <trkpt lat="46.53692" lon="6.01599">
        <ele>845.62</ele>
        <time>2022-07-31T08:47:58Z</time>
      </trkpt>
      <trkpt lat="46.53722" lon="6.01606">
        <ele>848.02</ele>
        <time>2022-07-31T08:48:13Z</time>
      </trkpt>
      <trkpt lat="46.53749" lon="6.01609">
        <ele>850.42</ele>
        <time>2022-07-31T08:48:29Z</time>
      </trkpt>
      <trkpt lat="46.5377" lon="6.01604">
        <ele>852.83</ele>
        <time>2022-07-31T08:48:43Z</time>
      </trkpt>
      <trkpt lat="46.53795" lon="6.01598">
        <ele>854.27</ele>
        <time>2022-07-31T08:48:59Z</time>
      </trkpt>
      <trkpt lat="46.53824" lon="6.01592">
        <ele>857.15</ele>
        <time>2022-07-31T08:49:16Z</time>
      </trkpt>
      <trkpt lat="46.53853" lon="6.01605">
        <ele>859.56</ele>
        <time>2022-07-31T08:49:36Z</time>
      </trkpt>
      <trkpt lat="46.53888" lon="6.0162">
        <ele>861.96</ele>
        <time>2022-07-31T08:49:52Z</time>
      </trkpt>
      <trkpt lat="46.53913" lon="6.0163">
        <ele>862.92</ele>
        <time>2022-07-31T08:50:06Z</time>
      </trkpt>
      <trkpt lat="46.53914" lon="6.01629">
        <ele>862.92</ele>
        <time>2022-07-31T08:50:07Z</time>
      </trkpt>
      <trkpt lat="46.53946" lon="6.01615">
        <ele>865.32</ele>
        <time>2022-07-31T08:50:28Z</time>
      </trkpt>
      <trkpt lat="46.53972" lon="6.0161">
        <ele>867.25</ele>
        <time>2022-07-31T08:50:44Z</time>
      </trkpt>
      <trkpt lat="46.54001" lon="6.01605">
        <ele>869.17</ele>
        <time>2022-07-31T08:51:01Z</time>
      </trkpt>
      <trkpt lat="46.54037" lon="6.01611">
        <ele>871.57</ele>
        <time>2022-07-31T08:51:19Z</time>
      </trkpt>
      <trkpt lat="46.5407" lon="6.0164">
        <ele>873.01</ele>
        <time>2022-07-31T08:51:36Z</time>
      </trkpt>
      <trkpt lat="46.541" lon="6.01665">
        <ele>874.94</ele>
        <time>2022-07-31T08:51:53Z</time>
      </trkpt>
      <trkpt lat="46.54134" lon="6.01696">
        <ele>876.86</ele>
        <time>2022-07-31T08:52:11Z</time>
      </trkpt>
      <trkpt lat="46.54148" lon="6.01734">
        <ele>877.82</ele>
        <time>2022-07-31T08:52:25Z</time>
      </trkpt>
      <trkpt lat="46.54171" lon="6.01793">
        <ele>878.78</ele>
        <time>2022-07-31T08:52:43Z</time>
      </trkpt>
      <trkpt lat="46.54182" lon="6.01828">
        <ele>882.15</ele>
        <time>2022-07-31T08:52:54Z</time>
      </trkpt>
      <trkpt lat="46.54186" lon="6.01879">
        <ele>882.63</ele>
        <time>2022-07-31T08:53:10Z</time>
      </trkpt>
      <trkpt lat="46.54212" lon="6.01913">
        <ele>884.07</ele>
        <time>2022-07-31T08:53:26Z</time>
      </trkpt>
      <trkpt lat="46.54224" lon="6.01969">
        <ele>884.07</ele>
        <time>2022-07-31T08:53:43Z</time>
      </trkpt>
      <trkpt lat="46.54215" lon="6.02003">
        <ele>885.03</ele>
        <time>2022-07-31T08:53:55Z</time>
      </trkpt>
      <trkpt lat="46.54203" lon="6.02013">
        <ele>886.47</ele>
        <time>2022-07-31T08:54:07Z</time>
      </trkpt>
      <trkpt lat="46.54201" lon="6.02018">
        <ele>886.47</ele>
        <time>2022-07-31T08:54:26Z</time>
      </trkpt>
      <trkpt lat="46.54204" lon="6.02019">
        <ele>886.47</ele>
        <time>2022-07-31T08:54:56Z</time>
      </trkpt>
      <trkpt lat="46.54202" lon="6.02018">
        <ele>886.47</ele>
        <time>2022-07-31T08:55:25Z</time>
      </trkpt>
      <trkpt lat="46.54201" lon="6.02018">
        <ele>886.47</ele>
        <time>2022-07-31T08:56:02Z</time>
      </trkpt>
      <trkpt lat="46.54199" lon="6.02019">
        <ele>886.47</ele>
        <time>2022-07-31T08:56:20Z</time>
      </trkpt>
    </trkseg>
  </trk>
</gpx>